Observation data for Fort Chadbourne on 11/14/2019      Previous  Date       Current Mesonet Observations  Soil Data  Daily Summary Page  Observations in Plain Language
KCH1 140600Z 13003KT 03/02 A3008 RMK A01 T00300020  RH  093%=      5-min Rain = 0
KCH1 140601Z 13002KT 03/02 A3008 RMK A01 T00300020  RH  093%=      5-min Rain = 0
KCH1 140602Z 13002KT 03/02 A3008 RMK A01 T00300020  RH  093%=      5-min Rain = 0
KCH1 140603Z 13002KT 03/02 A3008 RMK A01 T00300020  RH  093%=      5-min Rain = 0
KCH1 140604Z 13002KT 03/02 A3008 RMK A01 T00300020  RH  093%=      5-min Rain = 0
KCH1 140605Z 12002KT 03/02 A3008 RMK A01 T00310021  RH  093%=      5-min Rain = 0
KCH1 140606Z 12002KT 03/02 A3008 RMK A01 T00310021  RH  093%=      5-min Rain = 0
KCH1 140607Z 11002KT 03/02 A3008 RMK A01 T00300020  RH  093%=      5-min Rain = 0
KCH1 140608Z 11002KT 03/02 A3008 RMK A01 T00300020  RH  093%=      5-min Rain = 0
KCH1 140609Z 10002KT 03/02 A3008 RMK A01 T00300020  RH  093%=      5-min Rain = 0
KCH1 140610Z 09001KT 03/02 A3008 RMK A01 T00300019  RH  093%=      5-min Rain = 0
KCH1 140611Z 07002KT 03/02 A3008 RMK A01 T00300019  RH  093%=      5-min Rain = 0
KCH1 140612Z 07002KT 03/02 A3008 RMK A01 T00300020  RH  093%=      5-min Rain = 0
KCH1 140613Z 07002KT 03/02 A3008 RMK A01 T00300020  RH  093%=      5-min Rain = 0
KCH1 140614Z 09002KT 03/02 A3008 RMK A01 T00300020  RH  093%=      5-min Rain = 0
KCH1 140615Z 10002KT 03/02 A3008 RMK A01 T00300020  RH  093%=      5-min Rain = 0
KCH1 140616Z 10002KT 03/02 A3008 RMK A01 T00300019  RH  093%=      5-min Rain = 0
KCH1 140617Z 09002KT 03/02 A3008 RMK A01 T00300019  RH  093%=      5-min Rain = 0
KCH1 140618Z 08001KT 03/02 A3008 RMK A01 T00300019  RH  093%=      5-min Rain = 0
KCH1 140619Z 07001KT 03/02 A3008 RMK A01 T00300019  RH  093%=      5-min Rain = 0
KCH1 140620Z 09001KT 03/02 A3008 RMK A01 T00290019  RH  093%=      5-min Rain = 0
KCH1 140621Z 10002KT 03/02 A3009 RMK A01 T00290019  RH  093%=      5-min Rain = 0
KCH1 140622Z 11002KT 03/02 A3009 RMK A01 T00300019  RH  093%=      5-min Rain = 0
KCH1 140623Z 12002KT 03/02 A3009 RMK A01 T00300019  RH  093%=      5-min Rain = 0
KCH1 140624Z 11002KT 03/02 A3009 RMK A01 T00300019  RH  093%=      5-min Rain = 0
KCH1 140625Z 11001KT 03/02 A3009 RMK A01 T00300019  RH  092%=      5-min Rain = 0
KCH1 140626Z 11001KT 03/02 A3009 RMK A01 T00300019  RH  092%=      5-min Rain = 0
KCH1 140627Z 12002KT 03/02 A3009 RMK A01 T00300018  RH  092%=      5-min Rain = 0
KCH1 140628Z 13002KT 03/02 A3009 RMK A01 T00290018  RH  092%=      5-min Rain = 0
KCH1 140629Z 14002KT 03/02 A3009 RMK A01 T00290019  RH  093%=      5-min Rain = 0
KCH1 140630Z 14002KT 03/02 A3009 RMK A01 T00290019  RH  093%=      5-min Rain = 0
KCH1 140631Z 14002KT 03/02 A3009 RMK A01 T00290018  RH  093%=      5-min Rain = 0
KCH1 140632Z 13001KT 03/02 A3009 RMK A01 T00300019  RH  093%=      5-min Rain = 0
KCH1 140633Z 13001KT 03/02 A3009 RMK A01 T00300019  RH  093%=      5-min Rain = 0
KCH1 140634Z 13001KT 03/02 A3009 RMK A01 T00300019  RH  093%=      5-min Rain = 0
KCH1 140635Z 13001KT 03/02 A3009 RMK A01 T00290019  RH  093%=      5-min Rain = 0
KCH1 140636Z 14001KT 03/02 A3009 RMK A01 T00290018  RH  093%=      5-min Rain = 0
KCH1 140637Z 15002KT 03/02 A3009 RMK A01 T00290018  RH  093%=      5-min Rain = 0
KCH1 140638Z 15002KT 03/02 A3009 RMK A01 T00290018  RH  093%=      5-min Rain = 0
KCH1 140639Z 15003KT 03/02 A3009 RMK A01 T00280017  RH  093%=      5-min Rain = 0
KCH1 140640Z 15002KT 03/02 A3009 RMK A01 T00280017  RH  093%=      5-min Rain = 0
KCH1 140641Z 15002KT 03/02 A3009 RMK A01 T00270017  RH  093%=      5-min Rain = 0
KCH1 140642Z 15002KT 03/02 A3009 RMK A01 T00270017  RH  093%=      5-min Rain = 0
KCH1 140643Z 15002KT 03/02 A3009 RMK A01 T00270017  RH  093%=      5-min Rain = 0
KCH1 140644Z 15002KT 03/02 A3009 RMK A01 T00260016  RH  093%=      5-min Rain = 0
KCH1 140645Z 15002KT 03/02 A3009 RMK A01 T00260016  RH  093%=      5-min Rain = 0
KCH1 140646Z 15002KT 03/02 A3009 RMK A01 T00250015  RH  093%=      5-min Rain = 0
KCH1 140647Z 15001KT 02/01 A3009 RMK A01 T00240014  RH  093%=      5-min Rain = 0
KCH1 140648Z 15001KT 02/02 A3009 RMK A01 T00240015  RH  094%=      5-min Rain = 0
KCH1 140649Z 15000KT 02/02 A3009 RMK A01 T00240015  RH  094%=      5-min Rain = 0
KCH1 140650Z 00000KT 02/01 A3009 RMK A01 T00230014  RH  094%=      5-min Rain = 0
KCH1 140651Z 00000KT 02/02 A3009 RMK A01 T00230015  RH  094%=      5-min Rain = 0
KCH1 140652Z 00000KT 02/01 A3009 RMK A01 T00230014  RH  094%=      5-min Rain = 0
KCH1 140653Z 00000KT 02/01 A3009 RMK A01 T00220013  RH  094%=      5-min Rain = 0
KCH1 140654Z 00000KT 02/01 A3009 RMK A01 T00210012  RH  094%=      5-min Rain = 0
KCH1 140655Z 02001KT 02/01 A3009 RMK A01 T00210013  RH  094%=      5-min Rain = 0
KCH1 140656Z 01002KT 02/01 A3009 RMK A01 T00210014  RH  095%=      5-min Rain = 0
KCH1 140657Z 01001KT 02/02 A3009 RMK A01 T00220016  RH  095%=      5-min Rain = 0
KCH1 140658Z 00000KT 02/02 A3009 RMK A01 T00230016  RH  096%=      5-min Rain = 0
KCH1 140659Z 00000KT 02/02 A3009 RMK A01 T00240018  RH  096%=      5-min Rain = 0
KCH1 140700Z 00000KT 03/02 A3009 RMK A01 T00250019  RH  096%=      5-min Rain = 0
KCH1 140701Z 04000KT 03/02 A3009 RMK A01 T00250019  RH  096%=      5-min Rain = 0
KCH1 140702Z 02002KT 03/02 A3009 RMK A01 T00260019  RH  096%=      5-min Rain = 0
KCH1 140703Z 02002KT 02/02 A3009 RMK A01 T00240016  RH  094%=      5-min Rain = 0
KCH1 140704Z 02002KT 02/01 A3009 RMK A01 T00220013  RH  094%=      5-min Rain = 0
KCH1 140705Z 02001KT 02/01 A3009 RMK A01 T00210013  RH  094%=      5-min Rain = 0
KCH1 140706Z 01002KT 02/01 A3009 RMK A01 T00210013  RH  094%=      5-min Rain = 0
KCH1 140707Z 00002KT 02/01 A3009 RMK A01 T00210014  RH  095%=      5-min Rain = 0
KCH1 140708Z 00002KT 02/02 A3009 RMK A01 T00220015  RH  095%=      5-min Rain = 0
KCH1 140709Z 00002KT 02/02 A3009 RMK A01 T00220016  RH  095%=      5-min Rain = 0
KCH1 140710Z 00002KT 02/02 A3009 RMK A01 T00230016  RH  095%=      5-min Rain = 0
KCH1 140711Z 01003KT 02/02 A3009 RMK A01 T00230016  RH  095%=      5-min Rain = 0
KCH1 140712Z 36004KT 02/02 A3009 RMK A01 T00230016  RH  095%=      5-min Rain = 0
KCH1 140713Z 35004KT 02/02 A3009 RMK A01 T00220015  RH  095%=      5-min Rain = 0
KCH1 140714Z 35003KT 02/02 A3009 RMK A01 T00220015  RH  095%=      5-min Rain = 0
KCH1 140715Z 35003KT 02/02 A3009 RMK A01 T00230016  RH  095%=      5-min Rain = 0
KCH1 140716Z 35003KT 02/02 A3009 RMK A01 T00230017  RH  096%=      5-min Rain = 0
KCH1 140717Z 34003KT 02/02 A3009 RMK A01 T00240018  RH  096%=      5-min Rain = 0
KCH1 140718Z 34004KT 02/02 A3009 RMK A01 T00240017  RH  095%=      5-min Rain = 0
KCH1 140719Z 34004KT 02/02 A3009 RMK A01 T00240017  RH  095%=      5-min Rain = 0
KCH1 140720Z 34004KT 03/02 A3009 RMK A01 T00250018  RH  095%=      5-min Rain = 0
KCH1 140721Z 34003KT 03/02 A3009 RMK A01 T00250018  RH  095%=      5-min Rain = 0
KCH1 140722Z 34003KT 03/02 A3009 RMK A01 T00260018  RH  095%=      5-min Rain = 0
KCH1 140723Z 34002KT 03/02 A3009 RMK A01 T00270020  RH  095%=      5-min Rain = 0
KCH1 140724Z 34002KT 03/02 A3009 RMK A01 T00270020  RH  095%=      5-min Rain = 0
KCH1 140725Z 33002KT 03/02 A3009 RMK A01 T00280021  RH  095%=      5-min Rain = 0
KCH1 140726Z 33002KT 03/02 A3009 RMK A01 T00290021  RH  095%=      5-min Rain = 0
KCH1 140727Z 34002KT 03/02 A3009 RMK A01 T00290020  RH  094%=      5-min Rain = 0
KCH1 140728Z 34002KT 03/02 A3009 RMK A01 T00290020  RH  094%=      5-min Rain = 0
KCH1 140729Z 35002KT 03/02 A3009 RMK A01 T00290019  RH  093%=      5-min Rain = 0
KCH1 140730Z 35002KT 03/02 A3009 RMK A01 T00280018  RH  093%=      5-min Rain = 0
KCH1 140731Z 36002KT 03/02 A3009 RMK A01 T00270016  RH  093%=      5-min Rain = 0
KCH1 140732Z 00003KT 03/01 A3009 RMK A01 T00250014  RH  092%=      5-min Rain = 0
KCH1 140733Z 00003KT 02/01 A3009 RMK A01 T00230011  RH  092%=      5-min Rain = 0
KCH1 140734Z 00003KT 02/01 A3009 RMK A01 T00200007  RH  091%=      5-min Rain = 0
KCH1 140735Z 00003KT 02/00 A3009 RMK A01 T00170004  RH  091%=      5-min Rain = 0
KCH1 140736Z 00004KT 02/00 A3009 RMK A01 T00160004  RH  092%=      5-min Rain = 0
KCH1 140737Z 00004KT 02/01 A3009 RMK A01 T00160005  RH  093%=      5-min Rain = 0
KCH1 140738Z 00004KT 02/01 A3009 RMK A01 T00160006  RH  093%=      5-min Rain = 0
KCH1 140739Z 00004KT 02/01 A3009 RMK A01 T00160007  RH  094%=      5-min Rain = 0
KCH1 140740Z 35005KT 02/01 A3009 RMK A01 T00160009  RH  095%=      5-min Rain = 0
KCH1 140741Z 35005KT 02/01 A3008 RMK A01 T00170010  RH  095%=      5-min Rain = 0
KCH1 140742Z 35005KT 02/01 A3008 RMK A01 T00180012  RH  096%=      5-min Rain = 0
KCH1 140743Z 36005KT 02/01 A3008 RMK A01 T00180012  RH  096%=      5-min Rain = 0
KCH1 140744Z 00005KT 02/01 A3008 RMK A01 T00190013  RH  096%=      5-min Rain = 0
KCH1 140745Z 36004KT 02/01 A3009 RMK A01 T00190013  RH  096%=      5-min Rain = 0
KCH1 140746Z 35005KT 02/01 A3009 RMK A01 T00200014  RH  096%=      5-min Rain = 0
KCH1 140747Z 36004KT 02/02 A3009 RMK A01 T00200015  RH  096%=      5-min Rain = 0
KCH1 140748Z 00004KT 02/02 A3009 RMK A01 T00210015  RH  096%=      5-min Rain = 0
KCH1 140749Z 01003KT 02/02 A3009 RMK A01 T00210015  RH  096%=      5-min Rain = 0
KCH1 140750Z 01002KT 02/02 A3009 RMK A01 T00210015  RH  096%=      5-min Rain = 0
KCH1 140751Z 01001KT 02/02 A3009 RMK A01 T00210015  RH  095%=      5-min Rain = 0
KCH1 140752Z 00000KT 02/01 A301 RMK A01 T00210014  RH  095%=      5-min Rain = 0
KCH1 140753Z 00000KT 02/01 A301 RMK A01 T00190011  RH  094%=      5-min Rain = 0
KCH1 140754Z 33000KT 02/01 A301 RMK A01 T00170009  RH  094%=      5-min Rain = 0
KCH1 140755Z 00000KT 02/01 A301 RMK A01 T00170009  RH  095%=      5-min Rain = 0
KCH1 140756Z 24001KT 02/01 A301 RMK A01 T00170009  RH  095%=      5-min Rain = 0
KCH1 140757Z 24001KT 02/01 A301 RMK A01 T00160009  RH  095%=      5-min Rain = 0
KCH1 140758Z 22002KT 02/01 A301 RMK A01 T00160009  RH  095%=      5-min Rain = 0
KCH1 140759Z 22002KT 02/01 A301 RMK A01 T00150009  RH  096%=      5-min Rain = 0
KCH1 140800Z 21003KT 01/01 A301 RMK A01 T00140008  RH  096%=      5-min Rain = 0
KCH1 140801Z 21003KT 01/01 A301 RMK A01 T00130007  RH  096%=      5-min Rain = 0
KCH1 140802Z 21003KT 01/01 A301 RMK A01 T00120006  RH  096%=      5-min Rain = 0
KCH1 140803Z 23002KT 01/01 A301 RMK A01 T00110005  RH  096%=      5-min Rain = 0
KCH1 140804Z 25002KT 01/01 A301 RMK A01 T00110005  RH  096%=      5-min Rain = 0
KCH1 140805Z 25002KT 01/01 A301 RMK A01 T00110006  RH  096%=      5-min Rain = 0
KCH1 140806Z 26002KT 01/01 A301 RMK A01 T00120007  RH  097%=      5-min Rain = 0
KCH1 140807Z 27002KT 01/01 A301 RMK A01 T00140010  RH  097%=      5-min Rain = 0
KCH1 140808Z 27001KT 02/01 A301 RMK A01 T00170014  RH  098%=      5-min Rain = 0
KCH1 140809Z 27001KT 02/02 A301 RMK A01 T00190017  RH  099%=      5-min Rain = 0
KCH1 140810Z 26002KT 02/02 A301 RMK A01 T00210020  RH  099%=      5-min Rain = 0
KCH1 140811Z 25001KT 02/02 A301 RMK A01 T00230022  RH  099%=      5-min Rain = 0
KCH1 140812Z 25001KT 02/02 A301 RMK A01 T00230022  RH  099%=      5-min Rain = 0
KCH1 140813Z 26002KT 02/02 A301 RMK A01 T00230021  RH  099%=      5-min Rain = 0
KCH1 140814Z 27001KT 02/02 A301 RMK A01 T00220021  RH  099%=      5-min Rain = 0
KCH1 140815Z 29002KT 02/02 A301 RMK A01 T00230021  RH  099%=      5-min Rain = 0
KCH1 140816Z 29002KT 02/02 A301 RMK A01 T00230021  RH  099%=      5-min Rain = 0
KCH1 140817Z 29003KT 02/02 A301 RMK A01 T00230021  RH  099%=      5-min Rain = 0
KCH1 140818Z 30003KT 02/02 A301 RMK A01 T00220020  RH  099%=      5-min Rain = 0
KCH1 140819Z 29003KT 02/02 A301 RMK A01 T00210019  RH  098%=      5-min Rain = 0
KCH1 140820Z 29003KT 02/02 A301 RMK A01 T00200018  RH  098%=      5-min Rain = 0
KCH1 140821Z 29003KT 02/02 A301 RMK A01 T00200018  RH  099%=      5-min Rain = 0
KCH1 140822Z 28003KT 02/02 A3011 RMK A01 T00200018  RH  099%=      5-min Rain = 0
KCH1 140823Z 27003KT 02/02 A3011 RMK A01 T00200018  RH  099%=      5-min Rain = 0
KCH1 140824Z 27003KT 02/02 A3011 RMK A01 T00200018  RH  099%=      5-min Rain = 0
KCH1 140825Z 26003KT 02/02 A3011 RMK A01 T00200018  RH  099%=      5-min Rain = 0
KCH1 140826Z 26003KT 02/02 A3011 RMK A01 T00190017  RH  099%=      5-min Rain = 0
KCH1 140827Z 26003KT 02/02 A3011 RMK A01 T00180016  RH  099%=      5-min Rain = 0
KCH1 140828Z 25003KT 02/02 A3011 RMK A01 T00180016  RH  099%=      5-min Rain = 0
KCH1 140829Z 26003KT 02/02 A3011 RMK A01 T00170015  RH  099%=      5-min Rain = 0
KCH1 140830Z 26003KT 02/02 A3011 RMK A01 T00170015  RH  099%=      5-min Rain = 0
KCH1 140831Z 26003KT 02/01 A3011 RMK A01 T00160014  RH  099%=      5-min Rain = 0
KCH1 140832Z 25003KT 02/01 A3011 RMK A01 T00150013  RH  099%=      5-min Rain = 0
KCH1 140833Z 27003KT 02/01 A3011 RMK A01 T00150013  RH  099%=      5-min Rain = 0
KCH1 140834Z 27003KT 02/01 A3011 RMK A01 T00150013  RH  099%=      5-min Rain = 0
KCH1 140835Z 26003KT 01/01 A3011 RMK A01 T00140013  RH  099%=      5-min Rain = 0
KCH1 140836Z 25003KT 01/01 A3011 RMK A01 T00140012  RH  099%=      5-min Rain = 0
KCH1 140837Z 25004KT 01/01 A3011 RMK A01 T00140012  RH  099%=      5-min Rain = 0
KCH1 140838Z 25004KT 01/01 A3011 RMK A01 T00130012  RH  099%=      5-min Rain = 0
KCH1 140839Z 25004KT 01/01 A3012 RMK A01 T00130011  RH  099%=      5-min Rain = 0
KCH1 140840Z 26005KT 01/01 A3012 RMK A01 T00120011  RH  099%=      5-min Rain = 0
KCH1 140841Z 26004KT 01/01 A3012 RMK A01 T00120011  RH  099%=      5-min Rain = 0
KCH1 140842Z 26005KT 01/01 A3012 RMK A01 T00110010  RH  099%=      5-min Rain = 0
KCH1 140843Z 25004KT 01/01 A3012 RMK A01 T00110010  RH  099%=      5-min Rain = 0
KCH1 140844Z 26005KT 01/01 A3012 RMK A01 T00110009  RH  099%=      5-min Rain = 0
KCH1 140845Z 26005KT 01/01 A3012 RMK A01 T00110009  RH  099%=      5-min Rain = 0
KCH1 140846Z 26005KT 01/01 A3012 RMK A01 T00100009  RH  099%=      5-min Rain = 0
KCH1 140847Z 26005KT 01/01 A3012 RMK A01 T00100008  RH  099%=      5-min Rain = 0
KCH1 140848Z 26005KT 01/01 A3012 RMK A01 T00090008  RH  099%=      5-min Rain = 0
KCH1 140849Z 26005KT 01/01 A3012 RMK A01 T00090008  RH  099%=      5-min Rain = 0
KCH1 140850Z 27004KT 01/01 A3012 RMK A01 T00090007  RH  099%=      5-min Rain = 0
KCH1 140851Z 27005KT 01/01 A3012 RMK A01 T00090008  RH  099%=      5-min Rain = 0
KCH1 140852Z 27005KT 01/01 A3012 RMK A01 T00080007  RH  099%=      5-min Rain = 0
KCH1 140853Z 27004KT 01/01 A3012 RMK A01 T00080007  RH  099%=      5-min Rain = 0
KCH1 140854Z 27005KT 01/01 A3012 RMK A01 T00080007  RH  099%=      5-min Rain = 0
KCH1 140855Z 28005KT 01/01 A3012 RMK A01 T00080007  RH  099%=      5-min Rain = 0
KCH1 140856Z 29005KT 01/01 A3012 RMK A01 T00080007  RH  099%=      5-min Rain = 0
KCH1 140857Z 29005KT 01/01 A3012 RMK A01 T00080007  RH  099%=      5-min Rain = 0
KCH1 140858Z 29004KT 01/01 A3012 RMK A01 T00080007  RH  099%=      5-min Rain = 0
KCH1 140859Z 29004KT 01/01 A3012 RMK A01 T00080007  RH  099%=      5-min Rain = 0
KCH1 140900Z 30004KT 01/01 A3012 RMK A01 T00080007  RH  099%=      5-min Rain = 0
KCH1 140901Z 31004KT 01/01 A3012 RMK A01 T00080007  RH  099%=      5-min Rain = 0
KCH1 140902Z 31004KT 01/01 A3012 RMK A01 T00080007  RH  100%=      5-min Rain = 0
KCH1 140903Z 30003KT 01/01 A3012 RMK A01 T00080008  RH  100%=      5-min Rain = 0
KCH1 140904Z 30003KT 01/01 A3012 RMK A01 T00090008  RH  100%=      5-min Rain = 0
KCH1 140905Z 31003KT 01/01 A3012 RMK A01 T00090009  RH  100%=      5-min Rain = 0
KCH1 140906Z 31003KT 01/01 A3012 RMK A01 T00090008  RH  100%=      5-min Rain = 0
KCH1 140907Z 30002KT 01/00 A3012 RMK A01 T00050004  RH  099%=      5-min Rain = 0
KCH1 140908Z 30002KT 00/M00 A3012 RMK A01 T00011001  RH  099%=      5-min Rain = 0
KCH1 140909Z 30001KT 00/00 A3012 RMK A01 T000000-2  RH  099%=      5-min Rain = 0
KCH1 140910Z 29001KT 00/00 A3012 RMK A01 T000000-2  RH  099%=      5-min Rain = 0
KCH1 140911Z 29000KT 00/00 A3012 RMK A01 T00-000-2  RH  099%=      5-min Rain = 0
KCH1 140912Z 27000KT 00/00 A3012 RMK A01 T000000-1  RH  099%=      5-min Rain = 0
KCH1 140913Z 29001KT 00/00 A3012 RMK A01 T00010000  RH  099%=      5-min Rain = 0
KCH1 140914Z 29001KT 00/00 A3012 RMK A01 T00020001  RH  099%=      5-min Rain = 0
KCH1 140915Z 30002KT 00/00 A3012 RMK A01 T00030002  RH  100%=      5-min Rain = 0
KCH1 140916Z 30003KT 01/00 A3012 RMK A01 T00050004  RH  100%=      5-min Rain = 0
KCH1 140917Z 30003KT 01/01 A3012 RMK A01 T00070007  RH  100%=      5-min Rain = 0
KCH1 140918Z 31002KT 01/01 A3012 RMK A01 T00070007  RH  100%=      5-min Rain = 0
KCH1 140919Z 31001KT 01/01 A3012 RMK A01 T00060006  RH  100%=      5-min Rain = 0
KCH1 140920Z 31001KT 00/00 A3012 RMK A01 T00040004  RH  100%=      5-min Rain = 0
KCH1 140921Z 30000KT 00/00 A3012 RMK A01 T00040004  RH  100%=      5-min Rain = 0
KCH1 140922Z 00000KT 00/00 A3012 RMK A01 T00040004  RH  100%=      5-min Rain = 0
KCH1 140923Z 00000KT 01/00 A3012 RMK A01 T00050004  RH  100%=      5-min Rain = 0
KCH1 140924Z 34000KT 01/01 A3012 RMK A01 T00050005  RH  100%=      5-min Rain = 0
KCH1 140925Z 34001KT 01/01 A3012 RMK A01 T00050005  RH  100%=      5-min Rain = 0
KCH1 140926Z 00002KT 01/01 A3012 RMK A01 T00050005  RH  100%=      5-min Rain = 0
KCH1 140927Z 00002KT 00/00 A3012 RMK A01 T00040004  RH  100%=      5-min Rain = 0
KCH1 140928Z 34003KT 00/00 A3012 RMK A01 T00040004  RH  100%=      5-min Rain = 0
KCH1 140929Z 32003KT 00/00 A3012 RMK A01 T00040004  RH  100%=      5-min Rain = 0
KCH1 140930Z 34002KT 01/01 A3013 RMK A01 T00050005  RH  100%=      5-min Rain = 0
KCH1 140931Z 36002KT 01/01 A3013 RMK A01 T00050005  RH  100%=      5-min Rain = 0
KCH1 140932Z 01002KT 01/01 A3013 RMK A01 T00050005  RH  100%=      5-min Rain = 0
KCH1 140933Z 01002KT 01/01 A3013 RMK A01 T00050005  RH  100%=      5-min Rain = 0
KCH1 140934Z 00002KT 01/01 A3013 RMK A01 T00050005  RH  100%=      5-min Rain = 0
KCH1 140935Z 01002KT 00/00 A3013 RMK A01 T00040004  RH  100%=      5-min Rain = 0
KCH1 140936Z 36002KT 00/00 A3013 RMK A01 T00040004  RH  100%=      5-min Rain = 0
KCH1 140937Z 34001KT 00/00 A3013 RMK A01 T00030003  RH  100%=      5-min Rain = 0
KCH1 140938Z 32002KT 00/00 A3013 RMK A01 T00030003  RH  100%=      5-min Rain = 0
KCH1 140939Z 33002KT 00/00 A3013 RMK A01 T00030003  RH  100%=      5-min Rain = 0
KCH1 140940Z 34002KT 00/00 A3013 RMK A01 T00030003  RH  100%=      5-min Rain = 0
KCH1 140941Z 35002KT 00/00 A3013 RMK A01 T00030003  RH  100%=      5-min Rain = 0
KCH1 140942Z 01002KT 00/00 A3013 RMK A01 T00030003  RH  100%=      5-min Rain = 0
KCH1 140943Z 03002KT 00/00 A3013 RMK A01 T00020002  RH  100%=      5-min Rain = 0
KCH1 140944Z 03002KT M00/M00 A3013 RMK A01 T10011002  RH  100%=      5-min Rain = 0
KCH1 140945Z 01002KT M00/M01 A3013 RMK A01 T10041005  RH  099%=      5-min Rain = 0
KCH1 140946Z 01002KT M00/M01 A3013 RMK A01 T10041005  RH  099%=      5-min Rain = 0
KCH1 140947Z 02003KT M00/M01 A3013 RMK A01 T10041005  RH  100%=      5-min Rain = 0
KCH1 140948Z 01003KT M00/M00 A3013 RMK A01 T10041004  RH  100%=      5-min Rain = 0
KCH1 140949Z 02004KT M00/M01 A3013 RMK A01 T10041005  RH  100%=      5-min Rain = 0
KCH1 140950Z 01004KT M01/M01 A3013 RMK A01 T10051006  RH  100%=      5-min Rain = 0
KCH1 140951Z 00004KT M01/M01 A3013 RMK A01 T10061007  RH  100%=      5-min Rain = 0
KCH1 140952Z 36004KT M01/M01 A3013 RMK A01 T10071008  RH  099%=      5-min Rain = 0
KCH1 140953Z 34005KT M01/M01 A3013 RMK A01 T10071008  RH  100%=      5-min Rain = 0
KCH1 140954Z 34005KT M01/M01 A3013 RMK A01 T10061006  RH  100%=      5-min Rain = 0
KCH1 140955Z 34006KT M00/M00 A3013 RMK A01 T10041004  RH  100%=      5-min Rain = 0
KCH1 140956Z 35005KT M00/M00 A3013 RMK A01 T10031003  RH  100%=      5-min Rain = 0
KCH1 140957Z 34005KT M00/M00 A3013 RMK A01 T10011001  RH  100%=      5-min Rain = 0
KCH1 140958Z 34005KT M00/M00 A3013 RMK A01 T10011001  RH  100%=      5-min Rain = 0
KCH1 140959Z 34004KT 00/00 A3014 RMK A01 T00-000-0  RH  100%=      5-min Rain = 0
KCH1 141000Z 35004KT 00/00 A3014 RMK A01 T00010000  RH  100%=      5-min Rain = 0
KCH1 141001Z 34004KT 00/00 A3014 RMK A01 T00010001  RH  100%=      5-min Rain = 0
KCH1 141002Z 33004KT 00/00 A3014 RMK A01 T00010001  RH  100%=      5-min Rain = 0
KCH1 141003Z 34003KT 00/00 A3014 RMK A01 T00010001  RH  100%=      5-min Rain = 0
KCH1 141004Z 35002KT 00/00 A3014 RMK A01 T00010001  RH  100%=      5-min Rain = 0
KCH1 141005Z 36002KT 00/00 A3014 RMK A01 T00010001  RH  100%=      5-min Rain = 0
KCH1 141006Z 00002KT M00/M00 A3014 RMK A01 T10031003  RH  100%=      5-min Rain = 0
KCH1 141007Z 34002KT M01/M01 A3014 RMK A01 T10051005  RH  100%=      5-min Rain = 0
KCH1 141008Z 34002KT M00/M01 A3014 RMK A01 T10041005  RH  100%=      5-min Rain = 0
KCH1 141009Z 34002KT M00/M00 A3014 RMK A01 T10041004  RH  100%=      5-min Rain = 0
KCH1 141010Z 33003KT M00/M00 A3014 RMK A01 T10041004  RH  100%=      5-min Rain = 0
KCH1 141011Z 33003KT M00/M00 A3014 RMK A01 T10041004  RH  100%=      5-min Rain = 0
KCH1 141012Z 32003KT M00/M00 A3014 RMK A01 T10031003  RH  100%=      5-min Rain = 0
KCH1 141013Z 32003KT M00/M00 A3014 RMK A01 T10021002  RH  100%=      5-min Rain = 0
KCH1 141014Z 32004KT 00/00 A3014 RMK A01 T00-000-0  RH  100%=      5-min Rain = 0
KCH1 141015Z 33005KT 00/00 A3014 RMK A01 T00010001  RH  100%=      5-min Rain = 0
KCH1 141016Z 33005KT 00/00 A3014 RMK A01 T00020002  RH  100%=      5-min Rain = 0
KCH1 141017Z 32005KT 00/00 A3014 RMK A01 T00020002  RH  100%=      5-min Rain = 0
KCH1 141018Z 32005KT 00/00 A3014 RMK A01 T00020002  RH  100%=      5-min Rain = 0
KCH1 141019Z 32005KT 00/00 A3014 RMK A01 T00030003  RH  100%=      5-min Rain = 0
KCH1 141020Z 32004KT 00/00 A3014 RMK A01 T00030003  RH  100%=      5-min Rain = 0
KCH1 141021Z 32004KT 00/00 A3014 RMK A01 T00040004  RH  100%=      5-min Rain = 0
KCH1 141022Z 32004KT 00/00 A3015 RMK A01 T00040004  RH  100%=      5-min Rain = 0
KCH1 141023Z 32005KT 00/00 A3015 RMK A01 T00040004  RH  100%=      5-min Rain = 0
KCH1 141024Z 32006KT 00/00 A3015 RMK A01 T00040004  RH  100%=      5-min Rain = 0
KCH1 141025Z 32005KT 00/00 A3015 RMK A01 T00040004  RH  100%=      5-min Rain = 0
KCH1 141026Z 32005KT 01/01 A3015 RMK A01 T00050005  RH  100%=      5-min Rain = 0
KCH1 141027Z 32005KT 01/01 A3015 RMK A01 T00050005  RH  100%=      5-min Rain = 0
KCH1 141028Z 31005KT 01/01 A3015 RMK A01 T00050005  RH  100%=      5-min Rain = 0
KCH1 141029Z 31004KT 01/01 A3015 RMK A01 T00050005  RH  100%=      5-min Rain = 0
KCH1 141030Z 31004KT 01/01 A3015 RMK A01 T00050005  RH  100%=      5-min Rain = 0
KCH1 141031Z 31004KT 01/01 A3015 RMK A01 T00050005  RH  100%=      5-min Rain = 0
KCH1 141032Z 31004KT 01/01 A3015 RMK A01 T00050005  RH  100%=      5-min Rain = 0
KCH1 141033Z 31004KT 01/01 A3015 RMK A01 T00050005  RH  100%=      5-min Rain = 0
KCH1 141034Z 31005KT 01/01 A3015 RMK A01 T00060006  RH  100%=      5-min Rain = 0
KCH1 141035Z 32005KT 01/01 A3015 RMK A01 T00060006  RH  100%=      5-min Rain = 0
KCH1 141036Z 32005KT 01/01 A3015 RMK A01 T00070006  RH  100%=      5-min Rain = 0
KCH1 141037Z 31004KT 01/01 A3015 RMK A01 T00070006  RH  100%=      5-min Rain = 0
KCH1 141038Z 31004KT 01/01 A3015 RMK A01 T00060006  RH  100%=      5-min Rain = 0
KCH1 141039Z 30003KT 01/01 A3015 RMK A01 T00070006  RH  100%=      5-min Rain = 0
KCH1 141040Z 30003KT 01/01 A3015 RMK A01 T00060006  RH  100%=      5-min Rain = 0
KCH1 141041Z 30003KT 01/01 A3015 RMK A01 T00060005  RH  099%=      5-min Rain = 0
KCH1 141042Z 29003KT 01/01 A3015 RMK A01 T00060005  RH  099%=      5-min Rain = 0
KCH1 141043Z 29004KT 01/01 A3015 RMK A01 T00060005  RH  099%=      5-min Rain = 0
KCH1 141044Z 30004KT 01/01 A3015 RMK A01 T00060005  RH  099%=      5-min Rain = 0
KCH1 141045Z 31004KT 01/01 A3015 RMK A01 T00060006  RH  100%=      5-min Rain = 0
KCH1 141046Z 30005KT 01/01 A3015 RMK A01 T00070006  RH  100%=      5-min Rain = 0
KCH1 141047Z 31005KT 01/01 A3015 RMK A01 T00070007  RH  100%=      5-min Rain = 0
KCH1 141048Z 31006KT 01/01 A3015 RMK A01 T00080008  RH  100%=      5-min Rain = 0
KCH1 141049Z 31006KT 01/01 A3015 RMK A01 T00090008  RH  100%=      5-min Rain = 0
KCH1 141050Z 31005KT 01/01 A3015 RMK A01 T00090008  RH  100%=      5-min Rain = 0
KCH1 141051Z 30005KT 01/01 A3015 RMK A01 T00090009  RH  100%=      5-min Rain = 0
KCH1 141052Z 31005KT 01/01 A3015 RMK A01 T00100010  RH  100%=      5-min Rain = 0
KCH1 141053Z 31004KT 01/01 A3015 RMK A01 T00110011  RH  100%=      5-min Rain = 0
KCH1 141054Z 30005KT 01/01 A3015 RMK A01 T00110011  RH  100%=      5-min Rain = 0
KCH1 141055Z 31004KT 01/01 A3015 RMK A01 T00110011  RH  100%=      5-min Rain = 0
KCH1 141056Z 31005KT 01/01 A3015 RMK A01 T00110011  RH  100%=      5-min Rain = 0
KCH1 141057Z 30005KT 01/01 A3015 RMK A01 T00110011  RH  100%=      5-min Rain = 0
KCH1 141058Z 30005KT 01/01 A3015 RMK A01 T00110011  RH  100%=      5-min Rain = 0
KCH1 141059Z 30005KT 01/01 A3015 RMK A01 T00110010  RH  100%=      5-min Rain = 0
KCH1 141100Z 30005KT 01/01 A3015 RMK A01 T00110010  RH  100%=      5-min Rain = 0
KCH1 141101Z 30005KT 01/01 A3015 RMK A01 T00110011  RH  100%=      5-min Rain = 0
KCH1 141102Z 30005KT 01/01 A3015 RMK A01 T00110011  RH  100%=      5-min Rain = 0
KCH1 141103Z 30005KT 01/01 A3015 RMK A01 T00110010  RH  100%=      5-min Rain = 0
KCH1 141104Z 30005KT 01/01 A3015 RMK A01 T00110010  RH  100%=      5-min Rain = 0
KCH1 141105Z 31005KT 01/01 A3016 RMK A01 T00110011  RH  100%=      5-min Rain = 0
KCH1 141106Z 31005KT 01/01 A3015 RMK A01 T00110011  RH  100%=      5-min Rain = 0
KCH1 141107Z 31005KT 01/01 A3015 RMK A01 T00120011  RH  100%=      5-min Rain = 0
KCH1 141108Z 31005KT 01/01 A3015 RMK A01 T00120012  RH  100%=      5-min Rain = 0
KCH1 141109Z 31005KT 01/01 A3015 RMK A01 T00130013  RH  100%=      5-min Rain = 0
KCH1 141110Z 32005KT 01/01 A3015 RMK A01 T00130012  RH  100%=      5-min Rain = 0
KCH1 141111Z 31005KT 01/01 A3015 RMK A01 T00120012  RH  100%=      5-min Rain = 0
KCH1 141112Z 31005KT 01/01 A3015 RMK A01 T00120011  RH  100%=      5-min Rain = 0
KCH1 141113Z 31005KT 01/01 A3015 RMK A01 T00120011  RH  100%=      5-min Rain = 0
KCH1 141114Z 32004KT 01/01 A3016 RMK A01 T00120012  RH  100%=      5-min Rain = 0
KCH1 141115Z 31004KT 01/01 A3015 RMK A01 T00120011  RH  100%=      5-min Rain = 0
KCH1 141116Z 31005KT 01/01 A3015 RMK A01 T00110010  RH  100%=      5-min Rain = 0
KCH1 141117Z 32005KT 01/01 A3015 RMK A01 T00110010  RH  100%=      5-min Rain = 0
KCH1 141118Z 32005KT 01/01 A3015 RMK A01 T00110011  RH  100%=      5-min Rain = 0
KCH1 141119Z 32004KT 01/01 A3015 RMK A01 T00110011  RH  100%=      5-min Rain = 0
KCH1 141120Z 32004KT 01/01 A3015 RMK A01 T00110011  RH  100%=      5-min Rain = 0
KCH1 141121Z 32004KT 01/01 A3015 RMK A01 T00110010  RH  100%=      5-min Rain = 0
KCH1 141122Z 32003KT 01/01 A3015 RMK A01 T00110010  RH  100%=      5-min Rain = 0
KCH1 141123Z 31002KT 01/01 A3016 RMK A01 T00100010  RH  100%=      5-min Rain = 0
KCH1 141124Z 30002KT 01/01 A3016 RMK A01 T00100009  RH  100%=      5-min Rain = 0
KCH1 141125Z 30000KT 01/01 A3016 RMK A01 T00090008  RH  099%=      5-min Rain = 0
KCH1 141126Z 30000KT 01/01 A3016 RMK A01 T00070005  RH  099%=      5-min Rain = 0
KCH1 141127Z 31001KT 01/00 A3016 RMK A01 T00050004  RH  099%=      5-min Rain = 0
KCH1 141128Z 32001KT 00/00 A3016 RMK A01 T00040003  RH  099%=      5-min Rain = 0
KCH1 141129Z 32002KT 00/00 A3016 RMK A01 T00040002  RH  099%=      5-min Rain = 0
KCH1 141130Z 32003KT 00/00 A3016 RMK A01 T00040003  RH  099%=      5-min Rain = 0
KCH1 141131Z 32003KT 00/00 A3016 RMK A01 T00040003  RH  099%=      5-min Rain = 0
KCH1 141132Z 32003KT 00/00 A3016 RMK A01 T00040003  RH  099%=      5-min Rain = 0
KCH1 141133Z 31003KT 00/00 A3016 RMK A01 T00040004  RH  100%=      5-min Rain = 0
KCH1 141134Z 31003KT 01/00 A3016 RMK A01 T00050004  RH  100%=      5-min Rain = 0
KCH1 141135Z 32003KT 00/00 A3016 RMK A01 T00040004  RH  100%=      5-min Rain = 0
KCH1 141136Z 32003KT 00/00 A3016 RMK A01 T00040004  RH  100%=      5-min Rain = 0
KCH1 141137Z 32003KT 00/00 A3016 RMK A01 T00040003  RH  100%=      5-min Rain = 0
KCH1 141138Z 32004KT 00/00 A3016 RMK A01 T00040004  RH  100%=      5-min Rain = 0
KCH1 141139Z 32003KT 00/00 A3016 RMK A01 T00030003  RH  100%=      5-min Rain = 0
KCH1 141140Z 32004KT 00/00 A3016 RMK A01 T00030002  RH  100%=      5-min Rain = 0
KCH1 141141Z 33005KT 00/00 A3016 RMK A01 T00030002  RH  100%=      5-min Rain = 0
KCH1 141142Z 32005KT 00/00 A3016 RMK A01 T00030002  RH  100%=      5-min Rain = 0
KCH1 141143Z 32005KT 00/00 A3016 RMK A01 T00030002  RH  100%=      5-min Rain = 0
KCH1 141144Z 32006KT 00/00 A3016 RMK A01 T00040003  RH  100%=      5-min Rain = 0
KCH1 141145Z 32006KT 00/00 A3017 RMK A01 T00040004  RH  100%=      5-min Rain = 0
KCH1 141146Z 32006KT 01/01 A3017 RMK A01 T00050005  RH  100%=      5-min Rain = 0
KCH1 141147Z 32006KT 01/01 A3017 RMK A01 T00050005  RH  100%=      5-min Rain = 0
KCH1 141148Z 32006KT 01/01 A3017 RMK A01 T00050005  RH  100%=      5-min Rain = 0
KCH1 141149Z 32007KT 01/01 A3017 RMK A01 T00050005  RH  100%=      5-min Rain = 0
KCH1 141150Z 32007KT 01/01 A3017 RMK A01 T00050005  RH  100%=      5-min Rain = 0
KCH1 141151Z 32007KT 00/00 A3017 RMK A01 T00040004  RH  100%=      5-min Rain = 0
KCH1 141152Z 33007KT 00/00 A3017 RMK A01 T00040004  RH  100%=      5-min Rain = 0
KCH1 141153Z 32007KT 00/00 A3017 RMK A01 T00040004  RH  100%=      5-min Rain = 0
KCH1 141154Z 32007KT 00/00 A3017 RMK A01 T00030003  RH  100%=      5-min Rain = 0
KCH1 141155Z 33006KT 00/00 A3017 RMK A01 T00030002  RH  100%=      5-min Rain = 0
KCH1 141156Z 32006KT 00/00 A3017 RMK A01 T00030002  RH  100%=      5-min Rain = 0
KCH1 141157Z 32007KT 00/00 A3017 RMK A01 T00020001  RH  100%=      5-min Rain = 0
KCH1 141158Z 32008KT 00/00 A3017 RMK A01 T00020002  RH  100%=      5-min Rain = 0
KCH1 141159Z 33007KT 00/00 A3017 RMK A01 T00020001  RH  100%=      5-min Rain = 0
KCH1 141200Z 32006KT 00/00 A3017 RMK A01 T00010001  RH  099%=      5-min Rain = 0
KCH1 141201Z 33007KT 00/00 A3017 RMK A01 T000000-1  RH  099%=      5-min Rain = 0
KCH1 141202Z 32007KT 00/00 A3017 RMK A01 T000000-1  RH  099%=      5-min Rain = 0
KCH1 141203Z 33006KT 00/00 A3017 RMK A01 T00-000-1  RH  099%=      5-min Rain = 0
KCH1 141204Z 32007KT M00/M00 A3017 RMK A01 T10011002  RH  099%=      5-min Rain = 0
KCH1 141205Z 33006KT M00/M00 A3017 RMK A01 T10011002  RH  099%=      5-min Rain = 0
KCH1 141206Z 32006KT M00/M00 A3017 RMK A01 T10021003  RH  099%=      5-min Rain = 0
KCH1 141207Z 32006KT M00/M00 A3017 RMK A01 T10021003  RH  099%=      5-min Rain = 0
KCH1 141208Z 33005KT M00/M00 A3018 RMK A01 T10021003  RH  099%=      5-min Rain = 0
KCH1 141209Z 33006KT M00/M00 A3018 RMK A01 T10021003  RH  099%=      5-min Rain = 0
KCH1 141210Z 33006KT M00/M00 A3018 RMK A01 T10021003  RH  099%=      5-min Rain = 0
KCH1 141211Z 33007KT M00/M00 A3018 RMK A01 T10021003  RH  099%=      5-min Rain = 0
KCH1 141212Z 33006KT M00/M00 A3018 RMK A01 T10031004  RH  099%=      5-min Rain = 0
KCH1 141213Z 32007KT M00/M00 A3018 RMK A01 T10031004  RH  099%=      5-min Rain = 0
KCH1 141214Z 33007KT M00/M01 A3018 RMK A01 T10041005  RH  099%=      5-min Rain = 0
KCH1 141215Z 34008KT M00/M00 A3018 RMK A01 T10031004  RH  099%=      5-min Rain = 0
KCH1 141216Z 34007KT M00/M00 A3018 RMK A01 T10021003  RH  099%=      5-min Rain = 0
KCH1 141217Z 33007KT M00/M00 A3018 RMK A01 T10011002  RH  100%=      5-min Rain = 0
KCH1 141218Z 33007KT M00/M00 A3018 RMK A01 T10011002  RH  100%=      5-min Rain = 0
KCH1 141219Z 33007KT M00/M00 A3018 RMK A01 T10011002  RH  099%=      5-min Rain = 0
KCH1 141220Z 33007KT 00/00 A3018 RMK A01 T00-000-1  RH  099%=      5-min Rain = 0
KCH1 141221Z 33007KT 00/00 A3018 RMK A01 T00-000-1  RH  099%=      5-min Rain = 0
KCH1 141222Z 33007KT 00/00 A3018 RMK A01 T00-000-1  RH  099%=      5-min Rain = 0
KCH1 141223Z 33006KT 00/00 A3018 RMK A01 T00-000-2  RH  099%=      5-min Rain = 0
KCH1 141224Z 33006KT 00/00 A3018 RMK A01 T00-000-2  RH  099%=      5-min Rain = 0
KCH1 141225Z 33005KT 00/00 A3019 RMK A01 T00-000-2  RH  099%=      5-min Rain = 0
KCH1 141226Z 34005KT 00/00 A3019 RMK A01 T000000-1  RH  099%=      5-min Rain = 0
KCH1 141227Z 34005KT 00/M00 A3019 RMK A01 T00011001  RH  099%=      5-min Rain = 0
KCH1 141228Z 35005KT 00/00 A3019 RMK A01 T000100-0  RH  099%=      5-min Rain = 0
KCH1 141229Z 35005KT 00/00 A3019 RMK A01 T000100-0  RH  099%=      5-min Rain = 0
KCH1 141230Z 34005KT 00/00 A3019 RMK A01 T000200-0  RH  099%=      5-min Rain = 0
KCH1 141231Z 34004KT 00/M00 A3019 RMK A01 T00011001  RH  099%=      5-min Rain = 0
KCH1 141232Z 34004KT 00/M00 A3019 RMK A01 T00011001  RH  098%=      5-min Rain = 0
KCH1 141233Z 35005KT 00/M00 A3019 RMK A01 T00011002  RH  098%=      5-min Rain = 0
KCH1 141234Z 34005KT 00/M00 A3019 RMK A01 T00011002  RH  098%=      5-min Rain = 0
KCH1 141235Z 35005KT 00/M00 A3019 RMK A01 T00011002  RH  098%=      5-min Rain = 0
KCH1 141236Z 35005KT 00/M00 A3019 RMK A01 T00011001  RH  098%=      5-min Rain = 0
KCH1 141237Z 35005KT 00/00 A3019 RMK A01 T000200-0  RH  098%=      5-min Rain = 0
KCH1 141238Z 35006KT 00/00 A3019 RMK A01 T00030001  RH  098%=      5-min Rain = 0
KCH1 141239Z 35006KT 00/00 A3019 RMK A01 T00040002  RH  098%=      5-min Rain = 0
KCH1 141240Z 35007KT 01/00 A3019 RMK A01 T00060004  RH  099%=      5-min Rain = 0
KCH1 141241Z 35006KT 01/01 A302 RMK A01 T00080006  RH  099%=      5-min Rain = 0
KCH1 141242Z 35006KT 01/01 A302 RMK A01 T00100008  RH  099%=      5-min Rain = 0
KCH1 141243Z 35006KT 01/01 A302 RMK A01 T00120009  RH  098%=      5-min Rain = 0
KCH1 141244Z 36005KT 01/01 A302 RMK A01 T00130011  RH  098%=      5-min Rain = 0
KCH1 141245Z 00006KT 01/01 A302 RMK A01 T00140011  RH  098%=      5-min Rain = 0
KCH1 141246Z 36006KT 02/01 A302 RMK A01 T00150011  RH  097%=      5-min Rain = 0
KCH1 141247Z 36005KT 02/01 A302 RMK A01 T00160011  RH  097%=      5-min Rain = 0
KCH1 141248Z 35004KT 02/01 A302 RMK A01 T00170011  RH  096%=      5-min Rain = 0
KCH1 141249Z 36005KT 02/01 A302 RMK A01 T00160010  RH  096%=      5-min Rain = 0
KCH1 141250Z 00006KT 02/01 A302 RMK A01 T00170010  RH  096%=      5-min Rain = 0
KCH1 141251Z 01005KT 02/01 A302 RMK A01 T00180011  RH  096%=      5-min Rain = 0
KCH1 141252Z 00006KT 02/01 A302 RMK A01 T00180012  RH  095%=      5-min Rain = 0
KCH1 141253Z 36006KT 02/01 A302 RMK A01 T00190011  RH  095%=      5-min Rain = 0
KCH1 141254Z 36005KT 02/01 A302 RMK A01 T00190011  RH  095%=      5-min Rain = 0
KCH1 141255Z 01004KT 02/01 A302 RMK A01 T00190011  RH  094%=      5-min Rain = 0
KCH1 141256Z 03003KT 02/01 A302 RMK A01 T00190010  RH  094%=      5-min Rain = 0
KCH1 141257Z 01004KT 02/01 A3021 RMK A01 T00180008  RH  093%=      5-min Rain = 0
KCH1 141258Z 01004KT 02/01 A3021 RMK A01 T00170008  RH  094%=      5-min Rain = 0
KCH1 141259Z 00005KT 02/01 A3021 RMK A01 T00170008  RH  094%=      5-min Rain = 0
KCH1 141300Z 35006KT 02/01 A3021 RMK A01 T00170008  RH  094%=      5-min Rain = 0
KCH1 141301Z 36008KT 02/01 A3021 RMK A01 T00180009  RH  094%=      5-min Rain = 0
KCH1 141302Z 00006KT 02/01 A3021 RMK A01 T00190012  RH  095%=      5-min Rain = 0
KCH1 141303Z 02003KT 02/01 A3021 RMK A01 T00200012  RH  094%=      5-min Rain = 0
KCH1 141304Z 03003KT 02/01 A3021 RMK A01 T00200012  RH  094%=      5-min Rain = 0
KCH1 141305Z 02003KT 02/01 A3021 RMK A01 T00200011  RH  094%=      5-min Rain = 0
KCH1 141306Z 02004KT 02/01 A3021 RMK A01 T00200011  RH  094%=      5-min Rain = 0
KCH1 141307Z 02004KT 02/01 A3021 RMK A01 T00200012  RH  094%=      5-min Rain = 0
KCH1 141308Z 02005KT 02/01 A3021 RMK A01 T00200011  RH  094%=      5-min Rain = 0
KCH1 141309Z 02006KT 02/01 A3021 RMK A01 T00210012  RH  094%=      5-min Rain = 0
KCH1 141310Z 02005KT 02/01 A3021 RMK A01 T00220013  RH  093%=      5-min Rain = 0
KCH1 141311Z 01004KT 02/01 A3021 RMK A01 T00230012  RH  093%=      5-min Rain = 0
KCH1 141312Z 02005KT 02/01 A3021 RMK A01 T00230012  RH  092%=      5-min Rain = 0
KCH1 141313Z 02004KT 02/01 A3021 RMK A01 T00240012  RH  092%=      5-min Rain = 0
KCH1 141314Z 02005KT 02/01 A3021 RMK A01 T00240012  RH  092%=      5-min Rain = 0
KCH1 141315Z 01005KT 02/01 A3022 RMK A01 T00240012  RH  092%=      5-min Rain = 0
KCH1 141316Z 01005KT 02/01 A3022 RMK A01 T00240012  RH  092%=      5-min Rain = 0
KCH1 141317Z 01004KT 03/01 A3022 RMK A01 T00250013  RH  092%=      5-min Rain = 0
KCH1 141318Z 02004KT 03/01 A3022 RMK A01 T00260013  RH  091%=      5-min Rain = 0
KCH1 141319Z 02003KT 03/01 A3022 RMK A01 T00260013  RH  091%=      5-min Rain = 0
KCH1 141320Z 02003KT 03/01 A3022 RMK A01 T00260013  RH  091%=      5-min Rain = 0
KCH1 141321Z 02003KT 03/01 A3022 RMK A01 T00270013  RH  091%=      5-min Rain = 0
KCH1 141322Z 02003KT 03/01 A3022 RMK A01 T00270014  RH  091%=      5-min Rain = 0
KCH1 141323Z 03008KT 03/02 A3022 RMK A01 T00290015  RH  090%=      5-min Rain = 0
KCH1 141324Z 03006KT 03/02 A3022 RMK A01 T00310016  RH  090%=      5-min Rain = 0
KCH1 141325Z 02004KT 03/02 A3022 RMK A01 T00320016  RH  089%=      5-min Rain = 0
KCH1 141326Z 03003KT 03/02 A3022 RMK A01 T00330015  RH  088%=      5-min Rain = 0
KCH1 141327Z 02004KT 03/02 A3022 RMK A01 T00330015  RH  088%=      5-min Rain = 0
KCH1 141328Z 02007KT 03/02 A3022 RMK A01 T00330015  RH  088%=      5-min Rain = 0
KCH1 141329Z 02007KT 03/02 A3022 RMK A01 T00330015  RH  088%=      5-min Rain = 0
KCH1 141330Z 02006KT 03/02 A3022 RMK A01 T00340015  RH  088%=      5-min Rain = 0
KCH1 141331Z 02006KT 03/02 A3022 RMK A01 T00340015  RH  087%=      5-min Rain = 0
KCH1 141332Z 02005KT 04/02 A3022 RMK A01 T00350015  RH  087%=      5-min Rain = 0
KCH1 141333Z 02006KT 03/02 A3023 RMK A01 T00340015  RH  087%=      5-min Rain = 0
KCH1 141334Z 03005KT 04/02 A3023 RMK A01 T00350015  RH  087%=      5-min Rain = 0
KCH1 141335Z 01008KT 04/02 A3023 RMK A01 T00350015  RH  087%=      5-min Rain = 0
KCH1 141336Z 02005KT 04/02 A3023 RMK A01 T00360016  RH  087%=      5-min Rain = 0
KCH1 141337Z 03007KT 04/02 A3023 RMK A01 T00360016  RH  087%=      5-min Rain = 0
KCH1 141338Z 02008KT 04/02 A3023 RMK A01 T00360016  RH  087%=      5-min Rain = 0
KCH1 141339Z 02008KT 04/02 A3023 RMK A01 T00370016  RH  086%=      5-min Rain = 0
KCH1 141340Z 02007KT 04/02 A3023 RMK A01 T00370016  RH  086%=      5-min Rain = 0
KCH1 141341Z 01010KT 04/02 A3023 RMK A01 T00380016  RH  085%=      5-min Rain = 0
KCH1 141342Z 02009KT 04/02 A3023 RMK A01 T00380015  RH  085%=      5-min Rain = 0
KCH1 141343Z 03007KT 04/02 A3023 RMK A01 T00390015  RH  085%=      5-min Rain = 0
KCH1 141344Z 01007G12KT 04/02 A3023 RMK A01 T00390016  RH  085%=      5-min Rain = 0
KCH1 141345Z 02008KT 04/02 A3023 RMK A01 T00390016  RH  085%=      5-min Rain = 0
KCH1 141346Z 02007KT 04/02 A3023 RMK A01 T00400016  RH  085%=      5-min Rain = 0
KCH1 141347Z 02009KT 04/02 A3023 RMK A01 T00400016  RH  085%=      5-min Rain = 0
KCH1 141348Z 02011G16KT 04/02 A3023 RMK A01 T00410016  RH  084%=      5-min Rain = 0
KCH1 141349Z 02009G15KT 04/02 A3023 RMK A01 T00410016  RH  084%=      5-min Rain = 0
KCH1 141350Z 02011KT 04/02 A3023 RMK A01 T00410017  RH  084%=      5-min Rain = 0
KCH1 141351Z 02012KT 04/02 A3023 RMK A01 T00420016  RH  083%=      5-min Rain = 0
KCH1 141352Z 02011KT 04/02 A3023 RMK A01 T00430016  RH  083%=      5-min Rain = 0
KCH1 141353Z 02010KT 04/02 A3023 RMK A01 T00430016  RH  083%=      5-min Rain = 0
KCH1 141354Z 01009KT 04/02 A3023 RMK A01 T00430016  RH  082%=      5-min Rain = 0
KCH1 141355Z 02009G15KT 04/02 A3023 RMK A01 T00440016  RH  082%=      5-min Rain = 0
KCH1 141356Z 02012G17KT 04/02 A3024 RMK A01 T00440017  RH  082%=      5-min Rain = 0
KCH1 141357Z 01012G17KT 05/02 A3024 RMK A01 T00450016  RH  082%=      5-min Rain = 0
KCH1 141358Z 02010G15KT 05/02 A3024 RMK A01 T00450016  RH  082%=      5-min Rain = 0
KCH1 141359Z 02012KT 05/02 A3024 RMK A01 T00450016  RH  082%=      5-min Rain = 0
KCH1 141400Z 02011G16KT 05/02 A3024 RMK A01 T00450016  RH  081%=      5-min Rain = 0
KCH1 141401Z 01012KT 05/02 A3024 RMK A01 T00450015  RH  081%=      5-min Rain = 0
KCH1 141402Z 02012G18KT 05/02 A3024 RMK A01 T00450016  RH  081%=      5-min Rain = 0
KCH1 141403Z 02011KT 05/02 A3024 RMK A01 T00460016  RH  081%=      5-min Rain = 0
KCH1 141404Z 02014KT 05/02 A3024 RMK A01 T00460015  RH  081%=      5-min Rain = 0
KCH1 141405Z 02015KT 05/02 A3024 RMK A01 T00460015  RH  080%=      5-min Rain = 0
KCH1 141406Z 02011KT 05/02 A3024 RMK A01 T00470015  RH  080%=      5-min Rain = 0
KCH1 141407Z 02008KT 05/02 A3024 RMK A01 T00470016  RH  080%=      5-min Rain = 0
KCH1 141408Z 02012KT 05/02 A3024 RMK A01 T00480017  RH  081%=      5-min Rain = 0
KCH1 141409Z 01007KT 05/02 A3024 RMK A01 T00480016  RH  080%=      5-min Rain = 0
KCH1 141410Z 01008G13KT 05/02 A3025 RMK A01 T00480017  RH  080%=      5-min Rain = 0
KCH1 141411Z 02007KT 05/02 A3025 RMK A01 T00480017  RH  080%=      5-min Rain = 0
KCH1 141412Z 02010KT 05/02 A3025 RMK A01 T00490016  RH  079%=      5-min Rain = 0
KCH1 141413Z 03010KT 05/02 A3025 RMK A01 T00490015  RH  079%=      5-min Rain = 0
KCH1 141414Z 03010KT 05/02 A3025 RMK A01 T00490016  RH  079%=      5-min Rain = 0
KCH1 141415Z 02008KT 05/02 A3025 RMK A01 T00490016  RH  079%=      5-min Rain = 0
KCH1 141416Z 01012KT 05/02 A3025 RMK A01 T00500017  RH  079%=      5-min Rain = 0
KCH1 141417Z 03008G13KT 05/02 A3025 RMK A01 T00500016  RH  079%=      5-min Rain = 0
KCH1 141418Z 02009KT 05/02 A3025 RMK A01 T00510017  RH  079%=      5-min Rain = 0
KCH1 141419Z 02010G15KT 05/02 A3025 RMK A01 T00510017  RH  079%=      5-min Rain = 0
KCH1 141420Z 01013G18KT 05/02 A3025 RMK A01 T00510017  RH  078%=      5-min Rain = 0
KCH1 141421Z 01012KT 05/02 A3025 RMK A01 T00510016  RH  078%=      5-min Rain = 0
KCH1 141422Z 02009KT 05/02 A3025 RMK A01 T00520017  RH  078%=      5-min Rain = 0
KCH1 141423Z 02009KT 05/02 A3025 RMK A01 T00520018  RH  078%=      5-min Rain = 0
KCH1 141424Z 03010KT 05/02 A3025 RMK A01 T00530017  RH  078%=      5-min Rain = 0
KCH1 141425Z 03009KT 05/02 A3026 RMK A01 T00530018  RH  078%=      5-min Rain = 0
KCH1 141426Z 03013G18KT 05/02 A3026 RMK A01 T00540018  RH  078%=      5-min Rain = 0
KCH1 141427Z 03011G16KT 05/02 A3026 RMK A01 T00540017  RH  077%=      5-min Rain = 0
KCH1 141428Z 02010G16KT 05/02 A3026 RMK A01 T00540017  RH  077%=      5-min Rain = 0
KCH1 141429Z 02010KT 05/02 A3026 RMK A01 T00540017  RH  077%=      5-min Rain = 0
KCH1 141430Z 02007KT 05/02 A3026 RMK A01 T00540018  RH  078%=      5-min Rain = 0
KCH1 141431Z 03009G15KT 06/02 A3026 RMK A01 T00550019  RH  078%=      5-min Rain = 0
KCH1 141432Z 03013G19KT 06/02 A3026 RMK A01 T00560019  RH  077%=      5-min Rain = 0
KCH1 141433Z 02012KT 06/02 A3026 RMK A01 T00560017  RH  076%=      5-min Rain = 0
KCH1 141434Z 02011G16KT 06/02 A3026 RMK A01 T00560018  RH  076%=      5-min Rain = 0
KCH1 141435Z 03010G17KT 06/02 A3026 RMK A01 T00560017  RH  076%=      5-min Rain = 0
KCH1 141436Z 03013KT 06/02 A3026 RMK A01 T00570018  RH  076%=      5-min Rain = 0
KCH1 141437Z 03008KT 06/02 A3026 RMK A01 T00570017  RH  075%=      5-min Rain = 0
KCH1 141438Z 02011G16KT 06/02 A3026 RMK A01 T00570018  RH  076%=      5-min Rain = 0
KCH1 141439Z 03010G16KT 06/02 A3026 RMK A01 T00580018  RH  075%=      5-min Rain = 0
KCH1 141440Z 03013KT 06/02 A3026 RMK A01 T00580017  RH  075%=      5-min Rain = 0
KCH1 141441Z 02017G22KT 06/02 A3026 RMK A01 T00580017  RH  075%=      5-min Rain = 0
KCH1 141442Z 02013KT 06/02 A3026 RMK A01 T00580015  RH  074%=      5-min Rain = 0
KCH1 141443Z 03012KT 06/02 A3026 RMK A01 T00580015  RH  074%=      5-min Rain = 0
KCH1 141444Z 03011G19KT 06/02 A3026 RMK A01 T00580016  RH  075%=      5-min Rain = 0
KCH1 141445Z 03012G18KT 06/02 A3026 RMK A01 T00590017  RH  074%=      5-min Rain = 0
KCH1 141446Z 03013G18KT 06/02 A3026 RMK A01 T00600017  RH  074%=      5-min Rain = 0
KCH1 141447Z 03015KT 06/02 A3026 RMK A01 T00600015  RH  073%=      5-min Rain = 0
KCH1 141448Z 03009G14KT 06/02 A3026 RMK A01 T00600015  RH  073%=      5-min Rain = 0
KCH1 141449Z 03010KT 06/02 A3026 RMK A01 T00610018  RH  074%=      5-min Rain = 0
KCH1 141450Z 03008G14KT 06/02 A3027 RMK A01 T00620018  RH  073%=      5-min Rain = 0
KCH1 141451Z 02008G13KT 06/02 A3027 RMK A01 T00630019  RH  073%=      5-min Rain = 0
KCH1 141452Z 03009G16KT 06/02 A3027 RMK A01 T00640018  RH  072%=      5-min Rain = 0
KCH1 141453Z 02011KT 07/02 A3027 RMK A01 T00650018  RH  072%=      5-min Rain = 0
KCH1 141454Z 02015G22KT 07/02 A3027 RMK A01 T00650016  RH  071%=      5-min Rain = 0
KCH1 141455Z 02015G24KT 06/01 A3027 RMK A01 T00640013  RH  070%=      5-min Rain = 0
KCH1 141456Z 03011KT 06/01 A3027 RMK A01 T00640014  RH  070%=      5-min Rain = 0
KCH1 141457Z 02008G14KT 06/01 A3027 RMK A01 T00640014  RH  070%=      5-min Rain = 0
KCH1 141458Z 02011KT 06/02 A3027 RMK A01 T00640015  RH  071%=      5-min Rain = 0
KCH1 141459Z 02013G18KT 07/01 A3027 RMK A01 T00650014  RH  070%=      5-min Rain = 0
KCH1 141500Z 03012G17KT 07/01 A3027 RMK A01 T00650013  RH  069%=      5-min Rain = 0
KCH1 141501Z 00008KT 07/01 A3027 RMK A01 T00650014  RH  070%=      5-min Rain = 0
KCH1 141502Z 02015KT 07/01 A3027 RMK A01 T00650013  RH  070%=      5-min Rain = 0
KCH1 141503Z 01012G17KT 07/01 A3027 RMK A01 T00650012  RH  069%=      5-min Rain = 0
KCH1 141504Z 02015G21KT 07/01 A3028 RMK A01 T00650011  RH  068%=      5-min Rain = 0
KCH1 141505Z 02011G16KT 06/01 A3028 RMK A01 T00640011  RH  069%=      5-min Rain = 0
KCH1 141506Z 01015G21KT 07/01 A3028 RMK A01 T00650010  RH  068%=      5-min Rain = 0
KCH1 141507Z 02016KT 06/01 A3028 RMK A01 T00640010  RH  068%=      5-min Rain = 0
KCH1 141508Z 02013KT 06/01 A3028 RMK A01 T00640010  RH  068%=      5-min Rain = 0
KCH1 141509Z 02013KT 07/01 A3028 RMK A01 T00650009  RH  067%=      5-min Rain = 0
KCH1 141510Z 02012G18KT 07/01 A3028 RMK A01 T00650008  RH  067%=      5-min Rain = 0
KCH1 141511Z 02014G20KT 07/01 A3028 RMK A01 T00660008  RH  067%=      5-min Rain = 0
KCH1 141512Z 02016G22KT 07/01 A3028 RMK A01 T00660007  RH  066%=      5-min Rain = 0
KCH1 141513Z 03016G21KT 07/01 A3028 RMK A01 T00660005  RH  065%=      5-min Rain = 0
KCH1 141514Z 02012G19KT 07/01 A3028 RMK A01 T00660005  RH  065%=      5-min Rain = 0
KCH1 141515Z 02017G23KT 07/00 A3028 RMK A01 T00660004  RH  065%=      5-min Rain = 0
KCH1 141516Z 03013G23KT 07/00 A3028 RMK A01 T00660003  RH  064%=      5-min Rain = 0
KCH1 141517Z 03011G16KT 07/01 A3029 RMK A01 T00670005  RH  064%=      5-min Rain = 0
KCH1 141518Z 04009G14KT 07/01 A3029 RMK A01 T00690005  RH  064%=      5-min Rain = 0
KCH1 141519Z 03009G15KT 07/01 A3029 RMK A01 T00700005  RH  063%=      5-min Rain = 0
KCH1 141520Z 03011G16KT 07/01 A3029 RMK A01 T00720005  RH  063%=      5-min Rain = 0
KCH1 141521Z 03009KT 07/00 A3029 RMK A01 T00720004  RH  062%=      5-min Rain = 0
KCH1 141522Z 03012G20KT 07/00 A3029 RMK A01 T00730004  RH  062%=      5-min Rain = 0
KCH1 141523Z 03015KT 07/00 A3029 RMK A01 T00730002  RH  061%=      5-min Rain = 0
KCH1 141524Z 03013G18KT 07/00 A3029 RMK A01 T00730000  RH  060%=      5-min Rain = 0
KCH1 141525Z 03012G19KT 07/00 A3029 RMK A01 T007300-0  RH  060%=      5-min Rain = 0
KCH1 141526Z 03014G20KT 07/00 A3029 RMK A01 T007300-0  RH  060%=      5-min Rain = 0
KCH1 141527Z 03011KT 07/00 A3029 RMK A01 T007300-0  RH  060%=      5-min Rain = 0
KCH1 141528Z 02010G15KT 07/00 A3029 RMK A01 T00740000  RH  059%=      5-min Rain = 0
KCH1 141529Z 02014G19KT 07/M00 A3029 RMK A01 T00741001  RH  059%=      5-min Rain = 0
KCH1 141530Z 04012KT 07/M00 A303 RMK A01 T00741002  RH  059%=      5-min Rain = 0
KCH1 141531Z 03013G19KT 07/M00 A303 RMK A01 T00741002  RH  058%=      5-min Rain = 0
KCH1 141532Z 02013G19KT 08/M00 A303 RMK A01 T00751003  RH  058%=      5-min Rain = 0
KCH1 141533Z 03014G19KT 08/M00 A303 RMK A01 T00751003  RH  058%=      5-min Rain = 0
KCH1 141534Z 03014G20KT 08/M00 A303 RMK A01 T00751003  RH  058%=      5-min Rain = 0
KCH1 141535Z 03013G19KT 08/M01 A303 RMK A01 T00751005  RH  057%=      5-min Rain = 0
KCH1 141536Z 04015KT 08/M01 A3031 RMK A01 T00751005  RH  057%=      5-min Rain = 0
KCH1 141537Z 04013G19KT 08/M01 A3031 RMK A01 T00751005  RH  057%=      5-min Rain = 0
KCH1 141538Z 03009G15KT 08/M01 A3031 RMK A01 T00751005  RH  057%=      5-min Rain = 0
KCH1 141539Z 03010G15KT 08/M00 A3031 RMK A01 T00771004  RH  057%=      5-min Rain = 0
KCH1 141540Z 03012G18KT 08/M01 A3031 RMK A01 T00781005  RH  056%=      5-min Rain = 0
KCH1 141541Z 03012G19KT 08/M01 A3031 RMK A01 T00781008  RH  054%=      5-min Rain = 0
KCH1 141542Z 04014G22KT 08/M01 A3031 RMK A01 T00781008  RH  054%=      5-min Rain = 0
KCH1 141543Z 04015G25KT 08/M01 A3031 RMK A01 T00791008  RH  054%=      5-min Rain = 0
KCH1 141544Z 04015KT 08/M01 A3031 RMK A01 T00791009  RH  054%=      5-min Rain = 0
KCH1 141545Z 04015KT 08/M01 A3031 RMK A01 T00791009  RH  054%=      5-min Rain = 0
KCH1 141546Z 03012G17KT 08/M01 A3032 RMK A01 T00781009  RH  054%=      5-min Rain = 0
KCH1 141547Z 04011G16KT 08/M01 A3032 RMK A01 T00791007  RH  054%=      5-min Rain = 0
KCH1 141548Z 04015G20KT 08/M01 A3032 RMK A01 T00801008  RH  054%=      5-min Rain = 0
KCH1 141549Z 04013KT 08/M01 A3032 RMK A01 T00801010  RH  053%=      5-min Rain = 0
KCH1 141550Z 03014G21KT 08/M01 A3032 RMK A01 T00811008  RH  053%=      5-min Rain = 0
KCH1 141551Z 03013KT 08/M01 A3032 RMK A01 T00821010  RH  052%=      5-min Rain = 0
KCH1 141552Z 03011G16KT 08/M01 A3032 RMK A01 T00811009  RH  053%=      5-min Rain = 0
KCH1 141553Z 04016G21KT 08/M01 A3032 RMK A01 T00821011  RH  052%=      5-min Rain = 0
KCH1 141554Z 03012G20KT 08/M01 A3032 RMK A01 T00811012  RH  052%=      5-min Rain = 0
KCH1 141555Z 03012G18KT 08/M01 A3032 RMK A01 T00811010  RH  053%=      5-min Rain = 0
KCH1 141556Z 03015G23KT 08/M01 A3032 RMK A01 T00831011  RH  052%=      5-min Rain = 0
KCH1 141557Z 03016G22KT 08/M01 A3032 RMK A01 T00821014  RH  051%=      5-min Rain = 0
KCH1 141558Z 02017G22KT 08/M02 A3032 RMK A01 T00801017  RH  050%=      5-min Rain = 0
KCH1 141559Z 02009G15KT 08/M02 A3032 RMK A01 T00771016  RH  052%=      5-min Rain = 0
KCH1 141600Z 03012G19KT 08/M01 A3032 RMK A01 T00791012  RH  053%=      5-min Rain = 0
KCH1 141601Z 03012G18KT 08/M01 A3032 RMK A01 T00801014  RH  052%=      5-min Rain = 0
KCH1 141602Z 03014G20KT 08/M01 A3032 RMK A01 T00801014  RH  051%=      5-min Rain = 0
KCH1 141603Z 02011G16KT 08/M01 A3032 RMK A01 T00811014  RH  051%=      5-min Rain = 0
KCH1 141604Z 04010G15KT 08/M01 A3032 RMK A01 T00821011  RH  052%=      5-min Rain = 0
KCH1 141605Z 03015G23KT 08/M01 A3032 RMK A01 T00841011  RH  051%=      5-min Rain = 0
KCH1 141606Z 03016G21KT 08/M02 A3032 RMK A01 T00841015  RH  050%=      5-min Rain = 0
KCH1 141607Z 04014G20KT 08/M02 A3033 RMK A01 T00821018  RH  049%=      5-min Rain = 0
KCH1 141608Z 04018KT 08/M02 A3033 RMK A01 T00811018  RH  050%=      5-min Rain = 0
KCH1 141609Z 04016KT 08/M02 A3033 RMK A01 T00811017  RH  050%=      5-min Rain = 0
KCH1 141610Z 03016G21KT 08/M02 A3033 RMK A01 T00811017  RH  050%=      5-min Rain = 0
KCH1 141611Z 03016G21KT 08/M02 A3033 RMK A01 T00811017  RH  050%=      5-min Rain = 0
KCH1 141612Z 04013G18KT 08/M02 A3033 RMK A01 T00811017  RH  050%=      5-min Rain = 0
KCH1 141613Z 04015KT 08/M02 A3033 RMK A01 T00811016  RH  050%=      5-min Rain = 0
KCH1 141614Z 05016KT 08/M02 A3033 RMK A01 T00821017  RH  050%=      5-min Rain = 0
KCH1 141615Z 04014KT 08/M01 A3033 RMK A01 T00821014  RH  051%=      5-min Rain = 0
KCH1 141616Z 04012G21KT 08/M01 A3033 RMK A01 T00841013  RH  051%=      5-min Rain = 0
KCH1 141617Z 04016KT 09/M02 A3033 RMK A01 T00851015  RH  050%=      5-min Rain = 0
KCH1 141618Z 05013G18KT 08/M02 A3033 RMK A01 T00841016  RH  049%=      5-min Rain = 0
KCH1 141619Z 04016KT 08/M02 A3033 RMK A01 T00841016  RH  049%=      5-min Rain = 0
KCH1 141620Z 04015KT 09/M02 A3033 RMK A01 T00851017  RH  049%=      5-min Rain = 0
KCH1 141621Z 04013G18KT 09/M02 A3033 RMK A01 T00851017  RH  049%=      5-min Rain = 0
KCH1 141622Z 04012KT 09/M02 A3034 RMK A01 T00861016  RH  049%=      5-min Rain = 0
KCH1 141623Z 04013KT 09/M01 A3034 RMK A01 T00881014  RH  049%=      5-min Rain = 0
KCH1 141624Z 05017KT 09/M02 A3034 RMK A01 T00881016  RH  048%=      5-min Rain = 0
KCH1 141625Z 04015KT 09/M02 A3034 RMK A01 T00861018  RH  048%=      5-min Rain = 0
KCH1 141626Z 05011G16KT 09/M02 A3034 RMK A01 T00851016  RH  049%=      5-min Rain = 0
KCH1 141627Z 06014KT 09/M01 A3034 RMK A01 T00881013  RH  049%=      5-min Rain = 0
KCH1 141628Z 04009KT 09/M01 A3034 RMK A01 T00901012  RH  049%=      5-min Rain = 0
KCH1 141629Z 02009G14KT 09/M01 A3034 RMK A01 T00931009  RH  049%=      5-min Rain = 0
KCH1 141630Z 02012KT 09/M01 A3034 RMK A01 T00941011  RH  048%=      5-min Rain = 0
KCH1 141631Z 02013KT 09/M01 A3034 RMK A01 T00931014  RH  047%=      5-min Rain = 0
KCH1 141632Z 03014KT 09/M02 A3034 RMK A01 T00911015  RH  047%=      5-min Rain = 0
KCH1 141633Z 04013KT 09/M02 A3034 RMK A01 T00901015  RH  048%=      5-min Rain = 0
KCH1 141634Z 05015KT 09/M01 A3034 RMK A01 T00901014  RH  048%=      5-min Rain = 0
KCH1 141635Z 05014KT 09/M02 A3035 RMK A01 T00911016  RH  047%=      5-min Rain = 0
KCH1 141636Z 04013KT 09/M02 A3034 RMK A01 T00921016  RH  047%=      5-min Rain = 0
KCH1 141637Z 03011KT 09/M02 A3034 RMK A01 T00931015  RH  047%=      5-min Rain = 0
KCH1 141638Z 05016G22KT 09/M02 A3035 RMK A01 T00941016  RH  046%=      5-min Rain = 0
KCH1 141639Z 04015KT 09/M02 A3034 RMK A01 T00941019  RH  045%=      5-min Rain = 0
KCH1 141640Z 05014G19KT 09/M02 A3035 RMK A01 T00921020  RH  045%=      5-min Rain = 0
KCH1 141641Z 05015KT 09/M02 A3035 RMK A01 T00941015  RH  046%=      5-min Rain = 0
KCH1 141642Z 06014KT 10/M02 A3035 RMK A01 T00951018  RH  045%=      5-min Rain = 0
KCH1 141643Z 05014KT 10/M02 A3035 RMK A01 T00951018  RH  045%=      5-min Rain = 0
KCH1 141644Z 04011G18KT 09/M02 A3035 RMK A01 T00931019  RH  045%=      5-min Rain = 0
KCH1 141645Z 04013G18KT 09/M02 A3035 RMK A01 T00931016  RH  046%=      5-min Rain = 0
KCH1 141646Z 05013KT 10/M02 A3035 RMK A01 T00961018  RH  045%=      5-min Rain = 0
KCH1 141647Z 04013KT 10/M02 A3035 RMK A01 T00971018  RH  045%=      5-min Rain = 0
KCH1 141648Z 05013KT 10/M02 A3035 RMK A01 T00981018  RH  044%=      5-min Rain = 0
KCH1 141649Z 05014G20KT 10/M02 A3035 RMK A01 T00981019  RH  044%=      5-min Rain = 0
KCH1 141650Z 05016KT 10/M02 A3035 RMK A01 T00981022  RH  043%=      5-min Rain = 0
KCH1 141651Z 06016KT 09/M02 A3035 RMK A01 T00941023  RH  044%=      5-min Rain = 0
KCH1 141652Z 05017KT 09/M02 A3035 RMK A01 T00941020  RH  045%=      5-min Rain = 0
KCH1 141653Z 05014KT 09/M02 A3035 RMK A01 T00941021  RH  044%=      5-min Rain = 0
KCH1 141654Z 04013KT 09/M02 A3035 RMK A01 T00931019  RH  045%=      5-min Rain = 0
KCH1 141655Z 05013G18KT 10/M02 A3035 RMK A01 T00971016  RH  045%=      5-min Rain = 0
KCH1 141656Z 05015KT 10/M02 A3035 RMK A01 T00991017  RH  044%=      5-min Rain = 0
KCH1 141657Z 05011KT 10/M02 A3035 RMK A01 T00971019  RH  044%=      5-min Rain = 0
KCH1 141658Z 05016KT 10/M02 A3035 RMK A01 T00981019  RH  044%=      5-min Rain = 0
KCH1 141659Z 04017KT 10/M02 A3035 RMK A01 T00981022  RH  043%=      5-min Rain = 0
KCH1 141700Z 03015KT 10/M03 A3035 RMK A01 T00971025  RH  042%=      5-min Rain = 0
KCH1 141701Z 05017KT 10/M02 A3035 RMK A01 T00951023  RH  044%=      5-min Rain = 0
KCH1 141702Z 05016KT 10/M02 A3035 RMK A01 T00971020  RH  044%=      5-min Rain = 0
KCH1 141703Z 05017KT 10/M02 A3035 RMK A01 T00981022  RH  043%=      5-min Rain = 0
KCH1 141704Z 05015KT 10/M02 A3035 RMK A01 T00971023  RH  043%=      5-min Rain = 0
KCH1 141705Z 05014KT 10/M02 A3035 RMK A01 T00971023  RH  043%=      5-min Rain = 0
KCH1 141706Z 05016KT 10/M02 A3035 RMK A01 T00971022  RH  043%=      5-min Rain = 0
KCH1 141707Z 04014KT 10/M02 A3035 RMK A01 T00981022  RH  043%=      5-min Rain = 0
KCH1 141708Z 05013KT 10/M02 A3035 RMK A01 T00981023  RH  043%=      5-min Rain = 0
KCH1 141709Z 05014KT 10/M02 A3035 RMK A01 T00981023  RH  043%=      5-min Rain = 0
KCH1 141710Z 05016KT 10/M02 A3035 RMK A01 T00971022  RH  043%=      5-min Rain = 0
KCH1 141711Z 04013G18KT 10/M02 A3035 RMK A01 T00981020  RH  044%=      5-min Rain = 0
KCH1 141712Z 05015KT 10/M02 A3035 RMK A01 T00991022  RH  043%=      5-min Rain = 0
KCH1 141713Z 05012KT 10/M02 A3035 RMK A01 T00991023  RH  043%=      5-min Rain = 0
KCH1 141714Z 03013KT 10/M02 A3035 RMK A01 T00991022  RH  043%=      5-min Rain = 0
KCH1 141715Z 04013KT 10/M02 A3035 RMK A01 T01001021  RH  043%=      5-min Rain = 0
KCH1 141716Z 04009KT 10/M02 A3035 RMK A01 T01001019  RH  043%=      5-min Rain = 0
KCH1 141717Z 06011KT 10/M02 A3035 RMK A01 T01021016  RH  044%=      5-min Rain = 0
KCH1 141718Z 06012KT 10/M02 A3035 RMK A01 T01041018  RH  043%=      5-min Rain = 0
KCH1 141719Z 05013KT 11/M02 A3035 RMK A01 T01051020  RH  042%=      5-min Rain = 0
KCH1 141720Z 03010KT 10/M02 A3035 RMK A01 T01041022  RH  041%=      5-min Rain = 0
KCH1 141721Z 04009G15KT 10/M02 A3035 RMK A01 T01041019  RH  042%=      5-min Rain = 0
KCH1 141722Z 04011KT 11/M02 A3035 RMK A01 T01051021  RH  041%=      5-min Rain = 0
KCH1 141723Z 04014G19KT 10/M02 A3035 RMK A01 T01041022  RH  041%=      5-min Rain = 0
KCH1 141724Z 04014KT 10/M02 A3035 RMK A01 T01031023  RH  041%=      5-min Rain = 0
KCH1 141725Z 06012KT 10/M02 A3036 RMK A01 T01031022  RH  041%=      5-min Rain = 0
KCH1 141726Z 06013G18KT 10/M02 A3035 RMK A01 T01021022  RH  042%=      5-min Rain = 0
KCH1 141727Z 06013G19KT 10/M02 A3035 RMK A01 T01021022  RH  042%=      5-min Rain = 0
KCH1 141728Z 05014KT 10/M02 A3035 RMK A01 T01021022  RH  042%=      5-min Rain = 0
KCH1 141729Z 05012KT 10/M02 A3035 RMK A01 T01021021  RH  042%=      5-min Rain = 0
KCH1 141730Z 06013KT 10/M02 A3035 RMK A01 T01031023  RH  041%=      5-min Rain = 0
KCH1 141731Z 06014KT 10/M02 A3035 RMK A01 T01011023  RH  042%=      5-min Rain = 0
KCH1 141732Z 05011KT 10/M02 A3035 RMK A01 T01001023  RH  042%=      5-min Rain = 0
KCH1 141733Z 06014G19KT 10/M02 A3035 RMK A01 T01021020  RH  042%=      5-min Rain = 0
KCH1 141734Z 03015KT 10/M02 A3035 RMK A01 T01041022  RH  041%=      5-min Rain = 0
KCH1 141735Z 04011G16KT 11/M02 A3035 RMK A01 T01051023  RH  041%=      5-min Rain = 0
KCH1 141736Z 03013KT 11/M02 A3035 RMK A01 T01061024  RH  040%=      5-min Rain = 0
KCH1 141737Z 03011KT 11/M02 A3035 RMK A01 T01051024  RH  040%=      5-min Rain = 0
KCH1 141738Z 04014KT 11/M02 A3035 RMK A01 T01061022  RH  041%=      5-min Rain = 0
KCH1 141739Z 05014KT 11/M02 A3035 RMK A01 T01061023  RH  040%=      5-min Rain = 0
KCH1 141740Z 05011KT 11/M02 A3035 RMK A01 T01061023  RH  040%=      5-min Rain = 0
KCH1 141741Z 07013KT 11/M02 A3035 RMK A01 T01051023  RH  041%=      5-min Rain = 0
KCH1 141742Z 06015KT 11/M03 A3035 RMK A01 T01051025  RH  040%=      5-min Rain = 0
KCH1 141743Z 05015KT 11/M02 A3035 RMK A01 T01051024  RH  040%=      5-min Rain = 0
KCH1 141744Z 06013KT 11/M02 A3035 RMK A01 T01061022  RH  041%=      5-min Rain = 0
KCH1 141745Z 06013KT 11/M02 A3035 RMK A01 T01071021  RH  041%=      5-min Rain = 0
KCH1 141746Z 06011KT 11/M02 A3035 RMK A01 T01091017  RH  041%=      5-min Rain = 0
KCH1 141747Z 04011KT 11/M02 A3035 RMK A01 T01101019  RH  040%=      5-min Rain = 0
KCH1 141748Z 04014G19KT 11/M02 A3035 RMK A01 T01091020  RH  040%=      5-min Rain = 0
KCH1 141749Z 04012KT 11/M02 A3035 RMK A01 T01091022  RH  040%=      5-min Rain = 0
KCH1 141750Z 03013G18KT 11/M02 A3035 RMK A01 T01101023  RH  040%=      5-min Rain = 0
KCH1 141751Z 04012KT 11/M03 A3035 RMK A01 T01101025  RH  039%=      5-min Rain = 0
KCH1 141752Z 05012KT 11/M03 A3035 RMK A01 T01091025  RH  039%=      5-min Rain = 0
KCH1 141753Z 05016KT 11/M02 A3035 RMK A01 T01091024  RH  039%=      5-min Rain = 0
KCH1 141754Z 05015KT 11/M03 A3035 RMK A01 T01091025  RH  039%=      5-min Rain = 0
KCH1 141755Z 06015KT 11/M02 A3035 RMK A01 T01081024  RH  040%=      5-min Rain = 0
KCH1 141756Z 05014KT 11/M02 A3035 RMK A01 T01071024  RH  040%=      5-min Rain = 0
KCH1 141757Z 06012KT 11/M02 A3035 RMK A01 T01081024  RH  040%=      5-min Rain = 0
KCH1 141758Z 03009G16KT 11/M02 A3035 RMK A01 T01101022  RH  040%=      5-min Rain = 0
KCH1 141759Z 05012G18KT 11/M02 A3035 RMK A01 T01131022  RH  039%=      5-min Rain = 0
KCH1 141800Z 05015KT 12/M02 A3035 RMK A01 T01151022  RH  038%=      5-min Rain = 0
KCH1 141801Z 05012KT 11/M03 A3035 RMK A01 T01141026  RH  038%=      5-min Rain = 0
KCH1 141802Z 05015KT 11/M02 A3035 RMK A01 T01141024  RH  038%=      5-min Rain = 0
KCH1 141803Z 04013KT 11/M03 A3035 RMK A01 T01131028  RH  037%=      5-min Rain = 0
KCH1 141804Z 04009G14KT 11/M03 A3035 RMK A01 T01121026  RH  038%=      5-min Rain = 0
KCH1 141805Z 04007KT 11/M02 A3035 RMK A01 T01141022  RH  039%=      5-min Rain = 0
KCH1 141806Z 05008KT 12/M02 A3035 RMK A01 T01181018  RH  039%=      5-min Rain = 0
KCH1 141807Z 04012KT 12/M02 A3035 RMK A01 T01201022  RH  037%=      5-min Rain = 0
KCH1 141808Z 03011KT 12/M02 A3035 RMK A01 T01201021  RH  037%=      5-min Rain = 0
KCH1 141809Z 02014KT 12/M02 A3035 RMK A01 T01181023  RH  037%=      5-min Rain = 0
KCH1 141810Z 03011G16KT 12/M03 A3035 RMK A01 T01161025  RH  037%=      5-min Rain = 0
KCH1 141811Z 05014KT 12/M03 A3035 RMK A01 T01151026  RH  037%=      5-min Rain = 0
KCH1 141812Z 05015KT 11/M03 A3035 RMK A01 T01131028  RH  037%=      5-min Rain = 0
KCH1 141813Z 04011KT 11/M03 A3034 RMK A01 T01121025  RH  038%=      5-min Rain = 0
KCH1 141814Z 04009G14KT 12/M02 A3034 RMK A01 T01161020  RH  039%=      5-min Rain = 0
KCH1 141815Z 05010KT 12/M02 A3034 RMK A01 T01191022  RH  037%=      5-min Rain = 0
KCH1 141816Z 05010KT 12/M02 A3034 RMK A01 T01191022  RH  037%=      5-min Rain = 0
KCH1 141817Z 05011KT 12/M02 A3034 RMK A01 T01201023  RH  037%=      5-min Rain = 0
KCH1 141818Z 04008KT 12/M02 A3034 RMK A01 T01201022  RH  037%=      5-min Rain = 0
KCH1 141819Z 03007KT 12/M02 A3034 RMK A01 T01211023  RH  037%=      5-min Rain = 0
KCH1 141820Z 01009G14KT 12/M02 A3034 RMK A01 T01211023  RH  037%=      5-min Rain = 0
KCH1 141821Z 02007KT 12/M02 A3034 RMK A01 T01211024  RH  036%=      5-min Rain = 0
KCH1 141822Z 02010G16KT 12/M02 A3034 RMK A01 T01211024  RH  036%=      5-min Rain = 0
KCH1 141823Z 01009G14KT 12/M03 A3034 RMK A01 T01221025  RH  036%=      5-min Rain = 0
KCH1 141824Z 01010KT 12/M02 A3034 RMK A01 T01221024  RH  036%=      5-min Rain = 0
KCH1 141825Z 03012KT 12/M03 A3034 RMK A01 T01231025  RH  036%=      5-min Rain = 0
KCH1 141826Z 05011KT 12/M03 A3034 RMK A01 T01211027  RH  036%=      5-min Rain = 0
KCH1 141827Z 04009KT 12/M03 A3034 RMK A01 T01181027  RH  036%=      5-min Rain = 0
KCH1 141828Z 02011KT 12/M03 A3034 RMK A01 T01181025  RH  037%=      5-min Rain = 0
KCH1 141829Z 01013KT 12/M03 A3034 RMK A01 T01201026  RH  036%=      5-min Rain = 0
KCH1 141830Z 02012KT 12/M03 A3034 RMK A01 T01201025  RH  036%=      5-min Rain = 0
KCH1 141831Z 03008KT 12/M03 A3034 RMK A01 T01201025  RH  036%=      5-min Rain = 0
KCH1 141832Z 03013KT 12/M03 A3034 RMK A01 T01211025  RH  036%=      5-min Rain = 0
KCH1 141833Z 04011KT 12/M03 A3034 RMK A01 T01191027  RH  036%=      5-min Rain = 0
KCH1 141834Z 03009KT 12/M03 A3034 RMK A01 T01181028  RH  036%=      5-min Rain = 0
KCH1 141835Z 03008KT 12/M03 A3034 RMK A01 T01181028  RH  036%=      5-min Rain = 0
KCH1 141836Z 02008KT 12/M03 A3034 RMK A01 T01211026  RH  036%=      5-min Rain = 0
KCH1 141837Z 03011KT 12/M03 A3034 RMK A01 T01241027  RH  035%=      5-min Rain = 0
KCH1 141838Z 03013KT 12/M03 A3034 RMK A01 T01241032  RH  034%=      5-min Rain = 0
KCH1 141839Z 03011G16KT 12/M03 A3034 RMK A01 T01201033  RH  034%=      5-min Rain = 0
KCH1 141840Z 02009KT 12/M03 A3034 RMK A01 T01201028  RH  036%=      5-min Rain = 0
KCH1 141841Z 02008G14KT 12/M03 A3033 RMK A01 T01231026  RH  035%=      5-min Rain = 0
KCH1 141842Z 03012KT 12/M03 A3033 RMK A01 T01241029  RH  034%=      5-min Rain = 0
KCH1 141843Z 01012KT 13/M03 A3033 RMK A01 T01261028  RH  034%=      5-min Rain = 0
KCH1 141844Z 03013KT 13/M03 A3033 RMK A01 T01251032  RH  033%=      5-min Rain = 0
KCH1 141845Z 02014G19KT 12/M04 A3033 RMK A01 T01231036  RH  033%=      5-min Rain = 0
KCH1 141846Z 02012G17KT 12/M03 A3033 RMK A01 T01221034  RH  033%=      5-min Rain = 0
KCH1 141847Z 01011KT 12/M03 A3033 RMK A01 T01221034  RH  034%=      5-min Rain = 0
KCH1 141848Z 03011KT 12/M03 A3033 RMK A01 T01221032  RH  034%=      5-min Rain = 0
KCH1 141849Z 03010KT 12/M03 A3033 RMK A01 T01231032  RH  034%=      5-min Rain = 0
KCH1 141850Z 04014KT 12/M03 A3033 RMK A01 T01221032  RH  034%=      5-min Rain = 0
KCH1 141851Z 03012KT 12/M03 A3033 RMK A01 T01201034  RH  034%=      5-min Rain = 0
KCH1 141852Z 04009KT 12/M03 A3033 RMK A01 T01191032  RH  035%=      5-min Rain = 0
KCH1 141853Z 05011KT 12/M03 A3033 RMK A01 T01211030  RH  035%=      5-min Rain = 0
KCH1 141854Z 05011KT 12/M03 A3033 RMK A01 T01231033  RH  034%=      5-min Rain = 0
KCH1 141855Z 06014KT 13/M03 A3033 RMK A01 T01251032  RH  033%=      5-min Rain = 0
KCH1 141856Z 06016G21KT 13/M03 A3033 RMK A01 T01261033  RH  033%=      5-min Rain = 0
KCH1 141857Z 05014KT 12/M03 A3033 RMK A01 T01231034  RH  033%=      5-min Rain = 0
KCH1 141858Z 05014KT 12/M03 A3033 RMK A01 T01221033  RH  034%=      5-min Rain = 0
KCH1 141859Z 05018KT 12/M03 A3033 RMK A01 T01241032  RH  034%=      5-min Rain = 0
KCH1 141900Z 04013KT 13/M03 A3033 RMK A01 T01251033  RH  033%=      5-min Rain = 0
KCH1 141901Z 03010KT 12/M03 A3033 RMK A01 T01241034  RH  033%=      5-min Rain = 0
KCH1 141902Z 04011KT 12/M03 A3033 RMK A01 T01231031  RH  034%=      5-min Rain = 0
KCH1 141903Z 04007G15KT 12/M03 A3033 RMK A01 T01241030  RH  034%=      5-min Rain = 0
KCH1 141904Z 01008G14KT 13/M03 A3033 RMK A01 T01271026  RH  034%=      5-min Rain = 0
KCH1 141905Z 03011KT 13/M03 A3033 RMK A01 T01301027  RH  033%=      5-min Rain = 0
KCH1 141906Z 04013KT 13/M03 A3033 RMK A01 T01311027  RH  033%=      5-min Rain = 0
KCH1 141907Z 04011KT 13/M03 A3033 RMK A01 T01301030  RH  033%=      5-min Rain = 0
KCH1 141908Z 03010KT 13/M03 A3033 RMK A01 T01281029  RH  033%=      5-min Rain = 0
KCH1 141909Z 01013G20KT 13/M03 A3033 RMK A01 T01291030  RH  033%=      5-min Rain = 0
KCH1 141910Z 03012G17KT 13/M03 A3033 RMK A01 T01271031  RH  033%=      5-min Rain = 0
KCH1 141911Z 03009KT 13/M03 A3033 RMK A01 T01261030  RH  034%=      5-min Rain = 0
KCH1 141912Z 01010G16KT 13/M03 A3033 RMK A01 T01251031  RH  034%=      5-min Rain = 0
KCH1 141913Z 01010KT 12/M03 A3033 RMK A01 T01241029  RH  034%=      5-min Rain = 0
KCH1 141914Z 02013KT 13/M03 A3033 RMK A01 T01251030  RH  034%=      5-min Rain = 0
KCH1 141915Z 01010G16KT 13/M03 A3033 RMK A01 T01251029  RH  034%=      5-min Rain = 0
KCH1 141916Z 02012KT 13/M03 A3033 RMK A01 T01261026  RH  035%=      5-min Rain = 0
KCH1 141917Z 03008KT 13/M03 A3033 RMK A01 T01261026  RH  035%=      5-min Rain = 0
KCH1 141918Z 05009G15KT 13/M02 A3033 RMK A01 T01291023  RH  035%=      5-min Rain = 0
KCH1 141919Z 04015KT 13/M03 A3033 RMK A01 T01311026  RH  034%=      5-min Rain = 0
KCH1 141920Z 03012KT 13/M03 A3033 RMK A01 T01281028  RH  034%=      5-min Rain = 0
KCH1 141921Z 01008G13KT 13/M03 A3033 RMK A01 T01271027  RH  034%=      5-min Rain = 0
KCH1 141922Z 04010G15KT 13/M03 A3033 RMK A01 T01271027  RH  034%=      5-min Rain = 0
KCH1 141923Z 05012KT 13/M03 A3033 RMK A01 T01271027  RH  034%=      5-min Rain = 0
KCH1 141924Z 03011KT 13/M03 A3033 RMK A01 T01261026  RH  035%=      5-min Rain = 0
KCH1 141925Z 02010KT 13/M03 A3033 RMK A01 T01271025  RH  035%=      5-min Rain = 0
KCH1 141926Z 03011G17KT 13/M02 A3033 RMK A01 T01281023  RH  035%=      5-min Rain = 0
KCH1 141927Z 03011KT 13/M02 A3033 RMK A01 T01291024  RH  035%=      5-min Rain = 0
KCH1 141928Z 01012KT 13/M03 A3033 RMK A01 T01281025  RH  035%=      5-min Rain = 0
KCH1 141929Z 03012KT 13/M03 A3033 RMK A01 T01261026  RH  035%=      5-min Rain = 0
KCH1 141930Z 03009KT 12/M03 A3033 RMK A01 T01241027  RH  035%=      5-min Rain = 0
KCH1 141931Z 03009G15KT 12/M02 A3033 RMK A01 T01241024  RH  036%=      5-min Rain = 0
KCH1 141932Z 04014KT 13/M02 A3033 RMK A01 T01271022  RH  035%=      5-min Rain = 0
KCH1 141933Z 04012KT 13/M02 A3033 RMK A01 T01281023  RH  035%=      5-min Rain = 0
KCH1 141934Z 04012KT 13/M03 A3033 RMK A01 T01261025  RH  035%=      5-min Rain = 0
KCH1 141935Z 04009KT 13/M02 A3033 RMK A01 T01261022  RH  036%=      5-min Rain = 0
KCH1 141936Z 02010KT 13/M02 A3033 RMK A01 T01291021  RH  035%=      5-min Rain = 0
KCH1 141937Z 02011KT 13/M02 A3033 RMK A01 T01301022  RH  035%=      5-min Rain = 0
KCH1 141938Z 03012KT 13/M02 A3033 RMK A01 T01311024  RH  034%=      5-min Rain = 0
KCH1 141939Z 02013KT 13/M02 A3033 RMK A01 T01291024  RH  035%=      5-min Rain = 0
KCH1 141940Z 02008G14KT 13/M02 A3033 RMK A01 T01271023  RH  035%=      5-min Rain = 0
KCH1 141941Z 04012G18KT 13/M02 A3033 RMK A01 T01271020  RH  036%=      5-min Rain = 0
KCH1 141942Z 03014KT 13/M02 A3032 RMK A01 T01291022  RH  035%=      5-min Rain = 0
KCH1 141943Z 03011G16KT 13/M02 A3033 RMK A01 T01281021  RH  035%=      5-min Rain = 0
KCH1 141944Z 02009G15KT 13/M02 A3033 RMK A01 T01301020  RH  035%=      5-min Rain = 0
KCH1 141945Z 02010KT 13/M02 A3033 RMK A01 T01301022  RH  035%=      5-min Rain = 0
KCH1 141946Z 04008G13KT 13/M02 A3033 RMK A01 T01281023  RH  035%=      5-min Rain = 0
KCH1 141947Z 02006G11KT 13/M02 A3032 RMK A01 T01281021  RH  036%=      5-min Rain = 0
KCH1 141948Z 02010KT 13/M02 A3032 RMK A01 T01291020  RH  036%=      5-min Rain = 0
KCH1 141949Z 02016KT 13/M02 A3032 RMK A01 T01291022  RH  035%=      5-min Rain = 0
KCH1 141950Z 01012KT 13/M02 A3032 RMK A01 T01281022  RH  035%=      5-min Rain = 0
KCH1 141951Z 01012KT 13/M02 A3032 RMK A01 T01281022  RH  035%=      5-min Rain = 0
KCH1 141952Z 02011KT 13/M03 A3032 RMK A01 T01261025  RH  035%=      5-min Rain = 0
KCH1 141953Z 03011KT 12/M02 A3032 RMK A01 T01241024  RH  036%=      5-min Rain = 0
KCH1 141954Z 03008KT 12/M02 A3032 RMK A01 T01241024  RH  036%=      5-min Rain = 0
KCH1 141955Z 03012G18KT 13/M02 A3032 RMK A01 T01251022  RH  036%=      5-min Rain = 0
KCH1 141956Z 03012G17KT 13/M02 A3032 RMK A01 T01271022  RH  036%=      5-min Rain = 0
KCH1 141957Z 03010KT 13/M02 A3032 RMK A01 T01281020  RH  036%=      5-min Rain = 0
KCH1 141958Z 04010KT 13/M02 A3032 RMK A01 T01291022  RH  035%=      5-min Rain = 0
KCH1 141959Z 03009KT 13/M02 A3032 RMK A01 T01281022  RH  035%=      5-min Rain = 0
KCH1 142000Z 05006KT 13/M02 A3032 RMK A01 T01281023  RH  035%=      5-min Rain = 0
KCH1 142001Z 05011G18KT 13/M02 A3032 RMK A01 T01281021  RH  035%=      5-min Rain = 0
KCH1 142002Z 05014KT 13/M02 A3032 RMK A01 T01291023  RH  035%=      5-min Rain = 0
KCH1 142003Z 04014KT 13/M02 A3032 RMK A01 T01291023  RH  035%=      5-min Rain = 0
KCH1 142004Z 03013KT 13/M02 A3032 RMK A01 T01291024  RH  034%=      5-min Rain = 0
KCH1 142005Z 03012KT 13/M03 A3032 RMK A01 T01271026  RH  034%=      5-min Rain = 0
KCH1 142006Z 02009KT 13/M03 A3032 RMK A01 T01251026  RH  035%=      5-min Rain = 0
KCH1 142007Z 02008KT 13/M03 A3032 RMK A01 T01251025  RH  035%=      5-min Rain = 0
KCH1 142008Z 02005KT 13/M02 A3032 RMK A01 T01261023  RH  035%=      5-min Rain = 0
KCH1 142009Z 03009G16KT 13/M02 A3032 RMK A01 T01281023  RH  035%=      5-min Rain = 0
KCH1 142010Z 03011G17KT 13/M02 A3032 RMK A01 T01291023  RH  035%=      5-min Rain = 0
KCH1 142011Z 05014G19KT 13/M02 A3032 RMK A01 T01301024  RH  034%=      5-min Rain = 0
KCH1 142012Z 05009KT 13/M02 A3032 RMK A01 T01291023  RH  035%=      5-min Rain = 0
KCH1 142013Z 04007KT 13/M02 A3032 RMK A01 T01301024  RH  034%=      5-min Rain = 0
KCH1 142014Z 05009KT 13/M02 A3032 RMK A01 T01311020  RH  035%=      5-min Rain = 0
KCH1 142015Z 04011KT 13/M02 A3032 RMK A01 T01341022  RH  034%=      5-min Rain = 0
KCH1 142016Z 04006KT 13/M02 A3032 RMK A01 T01331024  RH  034%=      5-min Rain = 0
KCH1 142017Z 04012KT 13/M02 A3032 RMK A01 T01321023  RH  034%=      5-min Rain = 0
KCH1 142018Z 04014KT 13/M02 A3032 RMK A01 T01321023  RH  034%=      5-min Rain = 0
KCH1 142019Z 04016G21KT 13/M02 A3032 RMK A01 T01331024  RH  034%=      5-min Rain = 0
KCH1 142020Z 04014G19KT 13/M02 A3032 RMK A01 T01321023  RH  034%=      5-min Rain = 0
KCH1 142021Z 04015KT 13/M02 A3032 RMK A01 T01321023  RH  034%=      5-min Rain = 0
KCH1 142022Z 05010KT 13/M03 A3032 RMK A01 T01311025  RH  034%=      5-min Rain = 0
KCH1 142023Z 06010KT 13/M02 A3032 RMK A01 T01311024  RH  034%=      5-min Rain = 0
KCH1 142024Z 04012KT 13/M02 A3032 RMK A01 T01311023  RH  034%=      5-min Rain = 0
KCH1 142025Z 02012G17KT 13/M02 A3032 RMK A01 T01321022  RH  034%=      5-min Rain = 0
KCH1 142026Z 02012G17KT 13/M02 A3032 RMK A01 T01321023  RH  034%=      5-min Rain = 0
KCH1 142027Z 03010KT 13/M02 A3032 RMK A01 T01311024  RH  034%=      5-min Rain = 0
KCH1 142028Z 03008KT 13/M03 A3032 RMK A01 T01301025  RH  034%=      5-min Rain = 0
KCH1 142029Z 01015KT 13/M02 A3031 RMK A01 T01291024  RH  034%=      5-min Rain = 0
KCH1 142030Z 02012G18KT 13/M03 A3032 RMK A01 T01291025  RH  034%=      5-min Rain = 0
KCH1 142031Z 05012KT 13/M02 A3032 RMK A01 T01291024  RH  035%=      5-min Rain = 0
KCH1 142032Z 06013KT 13/M02 A3032 RMK A01 T01281024  RH  035%=      5-min Rain = 0
KCH1 142033Z 07014KT 13/M03 A3031 RMK A01 T01271025  RH  035%=      5-min Rain = 0
KCH1 142034Z 02015KT 13/M02 A3032 RMK A01 T01291021  RH  035%=      5-min Rain = 0
KCH1 142035Z 04016KT 13/M02 A3032 RMK A01 T01301020  RH  035%=      5-min Rain = 0
KCH1 142036Z 04011G16KT 13/M02 A3032 RMK A01 T01301020  RH  035%=      5-min Rain = 0
KCH1 142037Z 02011KT 13/M02 A3032 RMK A01 T01311019  RH  035%=      5-min Rain = 0
KCH1 142038Z 03007G13KT 13/M02 A3032 RMK A01 T01301020  RH  035%=      5-min Rain = 0
KCH1 142039Z 05009KT 13/M02 A3032 RMK A01 T01311018  RH  036%=      5-min Rain = 0
KCH1 142040Z 04011KT 13/M02 A3032 RMK A01 T01311019  RH  035%=      5-min Rain = 0
KCH1 142041Z 02010KT 13/M02 A3032 RMK A01 T01311018  RH  036%=      5-min Rain = 0
KCH1 142042Z 03008G13KT 13/M02 A3032 RMK A01 T01321015  RH  036%=      5-min Rain = 0
KCH1 142043Z 03009KT 13/M01 A3032 RMK A01 T01341014  RH  036%=      5-min Rain = 0
KCH1 142044Z 02011G16KT 14/M01 A3032 RMK A01 T01351014  RH  036%=      5-min Rain = 0
KCH1 142045Z 02014KT 14/M01 A3032 RMK A01 T01351012  RH  036%=      5-min Rain = 0
KCH1 142046Z 03014KT 13/M01 A3032 RMK A01 T01331013  RH  036%=      5-min Rain = 0
KCH1 142047Z 03011KT 13/M01 A3032 RMK A01 T01311010  RH  038%=      5-min Rain = 0
KCH1 142048Z 03009G14KT 13/M01 A3032 RMK A01 T01321010  RH  038%=      5-min Rain = 0
KCH1 142049Z 02008KT 13/M01 A3032 RMK A01 T01321011  RH  037%=      5-min Rain = 0
KCH1 142050Z 03009KT 13/M01 A3032 RMK A01 T01321011  RH  037%=      5-min Rain = 0
KCH1 142051Z 02011G19KT 13/M01 A3032 RMK A01 T01321010  RH  037%=      5-min Rain = 0
KCH1 142052Z 02013G18KT 13/M01 A3032 RMK A01 T01321011  RH  037%=      5-min Rain = 0
KCH1 142053Z 01013G18KT 13/M01 A3032 RMK A01 T01311013  RH  037%=      5-min Rain = 0
KCH1 142054Z 03009G14KT 13/M01 A3032 RMK A01 T01281012  RH  038%=      5-min Rain = 0
KCH1 142055Z 01013KT 13/M01 A3032 RMK A01 T01291011  RH  038%=      5-min Rain = 0
KCH1 142056Z 01014KT 13/M01 A3032 RMK A01 T01291012  RH  037%=      5-min Rain = 0
KCH1 142057Z 02012KT 13/M01 A3032 RMK A01 T01291012  RH  038%=      5-min Rain = 0
KCH1 142058Z 01012KT 13/M01 A3031 RMK A01 T01291011  RH  038%=      5-min Rain = 0
KCH1 142059Z 01011KT 13/M01 A3032 RMK A01 T01301010  RH  038%=      5-min Rain = 0
KCH1 142100Z 04011KT 13/M01 A3032 RMK A01 T01311011  RH  038%=      5-min Rain = 0
KCH1 142101Z 04014KT 13/M01 A3032 RMK A01 T01311010  RH  038%=      5-min Rain = 0
KCH1 142102Z 05015KT 13/M01 A3032 RMK A01 T01311012  RH  037%=      5-min Rain = 0
KCH1 142103Z 04011G16KT 13/M01 A3032 RMK A01 T01311013  RH  037%=      5-min Rain = 0
KCH1 142104Z 04016KT 13/M01 A3032 RMK A01 T01311012  RH  037%=      5-min Rain = 0
KCH1 142105Z 04013KT 13/M01 A3032 RMK A01 T01311013  RH  037%=      5-min Rain = 0
KCH1 142106Z 04013KT 13/M01 A3032 RMK A01 T01321012  RH  037%=      5-min Rain = 0
KCH1 142107Z 05010KT 13/M01 A3032 RMK A01 T01311013  RH  037%=      5-min Rain = 0
KCH1 142108Z 06011KT 13/M01 A3032 RMK A01 T01311011  RH  038%=      5-min Rain = 0
KCH1 142109Z 05011KT 13/M01 A3032 RMK A01 T01321011  RH  037%=      5-min Rain = 0
KCH1 142110Z 06011KT 13/M01 A3032 RMK A01 T01321011  RH  037%=      5-min Rain = 0
KCH1 142111Z 05011KT 13/M01 A3032 RMK A01 T01311010  RH  038%=      5-min Rain = 0
KCH1 142112Z 03008KT 13/M01 A3032 RMK A01 T01321007  RH  038%=      5-min Rain = 0
KCH1 142113Z 04011KT 13/M01 A3032 RMK A01 T01341006  RH  038%=      5-min Rain = 0
KCH1 142114Z 04008G16KT 14/M01 A3032 RMK A01 T01351008  RH  037%=      5-min Rain = 0
KCH1 142115Z 03011KT 13/M01 A3032 RMK A01 T01341008  RH  037%=      5-min Rain = 0
KCH1 142116Z 02013KT 13/M01 A3032 RMK A01 T01331010  RH  037%=      5-min Rain = 0
KCH1 142117Z 02011G16KT 13/M01 A3032 RMK A01 T01311009  RH  038%=      5-min Rain = 0
KCH1 142118Z 03012KT 13/M01 A3032 RMK A01 T01311009  RH  038%=      5-min Rain = 0
KCH1 142119Z 04011KT 13/M01 A3032 RMK A01 T01321008  RH  038%=      5-min Rain = 0
KCH1 142120Z 05013KT 13/M01 A3032 RMK A01 T01331007  RH  038%=      5-min Rain = 0
KCH1 142121Z 05012KT 13/M01 A3032 RMK A01 T01331009  RH  037%=      5-min Rain = 0
KCH1 142122Z 06012KT 13/M01 A3032 RMK A01 T01321009  RH  038%=      5-min Rain = 0
KCH1 142123Z 06012KT 13/M01 A3032 RMK A01 T01321009  RH  038%=      5-min Rain = 0
KCH1 142124Z 06010KT 13/M01 A3032 RMK A01 T01321009  RH  038%=      5-min Rain = 0
KCH1 142125Z 04012G17KT 13/M01 A3032 RMK A01 T01321010  RH  037%=      5-min Rain = 0
KCH1 142126Z 03013KT 13/M01 A3032 RMK A01 T01311011  RH  037%=      5-min Rain = 0
KCH1 142127Z 04011KT 13/M01 A3032 RMK A01 T01321011  RH  037%=      5-min Rain = 0
KCH1 142128Z 04011KT 13/M01 A3032 RMK A01 T01331009  RH  037%=      5-min Rain = 0
KCH1 142129Z 04011KT 14/M01 A3032 RMK A01 T01351010  RH  037%=      5-min Rain = 0
KCH1 142130Z 05011G16KT 14/M01 A3032 RMK A01 T01351012  RH  036%=      5-min Rain = 0
KCH1 142131Z 04016KT 13/M01 A3032 RMK A01 T01341013  RH  036%=      5-min Rain = 0
KCH1 142132Z 04011KT 13/M01 A3032 RMK A01 T01321014  RH  036%=      5-min Rain = 0
KCH1 142133Z 05014KT 13/M01 A3032 RMK A01 T01311013  RH  037%=      5-min Rain = 0
KCH1 142134Z 06013KT 13/M01 A3032 RMK A01 T01311012  RH  037%=      5-min Rain = 0
KCH1 142135Z 06012KT 13/M01 A3032 RMK A01 T01301011  RH  038%=      5-min Rain = 0
KCH1 142136Z 06014KT 13/M01 A3032 RMK A01 T01301009  RH  038%=      5-min Rain = 0
KCH1 142137Z 06015KT 13/M01 A3032 RMK A01 T01301009  RH  038%=      5-min Rain = 0
KCH1 142138Z 05014KT 13/M01 A3032 RMK A01 T01301008  RH  039%=      5-min Rain = 0
KCH1 142139Z 04015KT 13/M01 A3032 RMK A01 T01301007  RH  039%=      5-min Rain = 0
KCH1 142140Z 04011KT 13/M01 A3032 RMK A01 T01301005  RH  039%=      5-min Rain = 0
KCH1 142141Z 03007KT 13/M01 A3032 RMK A01 T01311006  RH  039%=      5-min Rain = 0
KCH1 142142Z 04006KT 13/M01 A3032 RMK A01 T01311005  RH  039%=      5-min Rain = 0
KCH1 142143Z 04010KT 13/M01 A3032 RMK A01 T01321006  RH  039%=      5-min Rain = 0
KCH1 142144Z 04009KT 13/M01 A3032 RMK A01 T01321006  RH  039%=      5-min Rain = 0
KCH1 142145Z 03010G15KT 13/M01 A3032 RMK A01 T01321006  RH  039%=      5-min Rain = 0
KCH1 142146Z 03011KT 13/M01 A3032 RMK A01 T01321007  RH  038%=      5-min Rain = 0
KCH1 142147Z 03009G16KT 13/M01 A3032 RMK A01 T01321007  RH  038%=      5-min Rain = 0
KCH1 142148Z 03011G17KT 13/M01 A3032 RMK A01 T01321007  RH  038%=      5-min Rain = 0
KCH1 142149Z 02010G15KT 13/M01 A3032 RMK A01 T01321007  RH  038%=      5-min Rain = 0
KCH1 142150Z 04010KT 13/M01 A3032 RMK A01 T01321008  RH  038%=      5-min Rain = 0
KCH1 142151Z 05011KT 13/M01 A3032 RMK A01 T01321007  RH  038%=      5-min Rain = 0
KCH1 142152Z 06012G17KT 13/M01 A3032 RMK A01 T01321009  RH  038%=      5-min Rain = 0
KCH1 142153Z 05014G19KT 13/M01 A3032 RMK A01 T01321010  RH  038%=      5-min Rain = 0
KCH1 142154Z 05011G18KT 13/M01 A3032 RMK A01 T01301009  RH  038%=      5-min Rain = 0
KCH1 142155Z 02014KT 13/M01 A3032 RMK A01 T01301008  RH  038%=      5-min Rain = 0
KCH1 142156Z 03010KT 13/M01 A3032 RMK A01 T01311008  RH  038%=      5-min Rain = 0
KCH1 142157Z 03013KT 13/M01 A3032 RMK A01 T01301009  RH  038%=      5-min Rain = 0
KCH1 142158Z 03013KT 13/M01 A3032 RMK A01 T01291009  RH  038%=      5-min Rain = 0
KCH1 142159Z 04011KT 13/M01 A3032 RMK A01 T01281009  RH  039%=      5-min Rain = 0
KCH1 142200Z 03011G16KT 13/M01 A3032 RMK A01 T01271008  RH  039%=      5-min Rain = 0
KCH1 142201Z 04012KT 13/M01 A3032 RMK A01 T01271008  RH  039%=      5-min Rain = 0
KCH1 142202Z 04011KT 13/M01 A3032 RMK A01 T01271008  RH  039%=      5-min Rain = 0
KCH1 142203Z 03011KT 13/M01 A3032 RMK A01 T01271008  RH  039%=      5-min Rain = 0
KCH1 142204Z 03011KT 13/M01 A3032 RMK A01 T01271008  RH  039%=      5-min Rain = 0
KCH1 142205Z 04011KT 13/M01 A3032 RMK A01 T01271008  RH  039%=      5-min Rain = 0
KCH1 142206Z 04010KT 13/M01 A3032 RMK A01 T01271008  RH  039%=      5-min Rain = 0
KCH1 142207Z 05014G19KT 13/M01 A3032 RMK A01 T01271008  RH  039%=      5-min Rain = 0
KCH1 142208Z 05017KT 13/M01 A3032 RMK A01 T01271008  RH  039%=      5-min Rain = 0
KCH1 142209Z 05013KT 13/M01 A3032 RMK A01 T01261008  RH  040%=      5-min Rain = 0
KCH1 142210Z 05011KT 13/M01 A3032 RMK A01 T01261007  RH  040%=      5-min Rain = 0
KCH1 142211Z 04010KT 13/M01 A3032 RMK A01 T01251007  RH  040%=      5-min Rain = 0
KCH1 142212Z 04010KT 13/M01 A3032 RMK A01 T01261005  RH  040%=      5-min Rain = 0
KCH1 142213Z 03012KT 13/M01 A3032 RMK A01 T01261006  RH  040%=      5-min Rain = 0
KCH1 142214Z 04012KT 13/M01 A3032 RMK A01 T01271007  RH  040%=      5-min Rain = 0
KCH1 142215Z 05012KT 13/M01 A3032 RMK A01 T01271007  RH  040%=      5-min Rain = 0
KCH1 142216Z 04013KT 13/M01 A3032 RMK A01 T01261007  RH  040%=      5-min Rain = 0
KCH1 142217Z 04012KT 13/M01 A3032 RMK A01 T01261007  RH  040%=      5-min Rain = 0
KCH1 142218Z 04011G17KT 13/M01 A3032 RMK A01 T01251008  RH  040%=      5-min Rain = 0
KCH1 142219Z 03012KT 13/M01 A3032 RMK A01 T01251008  RH  040%=      5-min Rain = 0
KCH1 142220Z 04012KT 12/M01 A3032 RMK A01 T01241007  RH  040%=      5-min Rain = 0
KCH1 142221Z 04012KT 13/M01 A3032 RMK A01 T01251007  RH  040%=      5-min Rain = 0
KCH1 142222Z 04011KT 13/M01 A3032 RMK A01 T01251006  RH  040%=      5-min Rain = 0
KCH1 142223Z 04009KT 13/M01 A3032 RMK A01 T01251007  RH  040%=      5-min Rain = 0
KCH1 142224Z 02010G15KT 13/M01 A3032 RMK A01 T01251006  RH  040%=      5-min Rain = 0
KCH1 142225Z 03012KT 13/M01 A3032 RMK A01 T01251006  RH  040%=      5-min Rain = 0
KCH1 142226Z 03011KT 13/M01 A3032 RMK A01 T01251007  RH  040%=      5-min Rain = 0
KCH1 142227Z 03008KT 12/M01 A3032 RMK A01 T01241006  RH  040%=      5-min Rain = 0
KCH1 142228Z 04010KT 13/M01 A3032 RMK A01 T01251006  RH  040%=      5-min Rain = 0
KCH1 142229Z 03012G17KT 12/M01 A3032 RMK A01 T01241007  RH  040%=      5-min Rain = 0
KCH1 142230Z 02012KT 12/M01 A3032 RMK A01 T01241007  RH  040%=      5-min Rain = 0
KCH1 142231Z 02012KT 12/M01 A3032 RMK A01 T01231006  RH  041%=      5-min Rain = 0
KCH1 142232Z 02009KT 12/M01 A3033 RMK A01 T01231005  RH  041%=      5-min Rain = 0
KCH1 142233Z 02008KT 12/M01 A3033 RMK A01 T01231005  RH  041%=      5-min Rain = 0
KCH1 142234Z 02009KT 12/M01 A3033 RMK A01 T01231005  RH  041%=      5-min Rain = 0
KCH1 142235Z 03013KT 12/M01 A3033 RMK A01 T01231005  RH  041%=      5-min Rain = 0
KCH1 142236Z 03011KT 12/M01 A3033 RMK A01 T01231005  RH  041%=      5-min Rain = 0
KCH1 142237Z 04009KT 12/M01 A3033 RMK A01 T01231005  RH  041%=      5-min Rain = 0
KCH1 142238Z 02008KT 12/M00 A3033 RMK A01 T01231004  RH  041%=      5-min Rain = 0
KCH1 142239Z 02008KT 12/M00 A3033 RMK A01 T01231004  RH  042%=      5-min Rain = 0
KCH1 142240Z 03011KT 12/M00 A3033 RMK A01 T01231004  RH  041%=      5-min Rain = 0
KCH1 142241Z 03011KT 12/M01 A3033 RMK A01 T01231005  RH  041%=      5-min Rain = 0
KCH1 142242Z 04009KT 12/M01 A3033 RMK A01 T01221005  RH  041%=      5-min Rain = 0
KCH1 142243Z 03008KT 12/M00 A3033 RMK A01 T01221004  RH  042%=      5-min Rain = 0
KCH1 142244Z 03006KT 12/M01 A3033 RMK A01 T01211005  RH  042%=      5-min Rain = 0
KCH1 142245Z 03008KT 12/M00 A3033 RMK A01 T01211004  RH  042%=      5-min Rain = 0
KCH1 142246Z 03011KT 12/M00 A3034 RMK A01 T01211004  RH  042%=      5-min Rain = 0
KCH1 142247Z 04009KT 12/M01 A3033 RMK A01 T01211005  RH  042%=      5-min Rain = 0
KCH1 142248Z 03009KT 12/M01 A3034 RMK A01 T01201005  RH  042%=      5-min Rain = 0
KCH1 142249Z 03009KT 12/M01 A3034 RMK A01 T01191006  RH  042%=      5-min Rain = 0
KCH1 142250Z 02007KT 12/M01 A3034 RMK A01 T01201005  RH  042%=      5-min Rain = 0
KCH1 142251Z 03010KT 12/M00 A3034 RMK A01 T01201004  RH  043%=      5-min Rain = 0
KCH1 142252Z 03011KT 12/M00 A3034 RMK A01 T01201004  RH  042%=      5-min Rain = 0
KCH1 142253Z 04008G13KT 12/M00 A3034 RMK A01 T01191004  RH  042%=      5-min Rain = 0
KCH1 142254Z 05010KT 12/M00 A3034 RMK A01 T01181003  RH  043%=      5-min Rain = 0
KCH1 142255Z 04009KT 12/M00 A3034 RMK A01 T01181003  RH  043%=      5-min Rain = 0
KCH1 142256Z 04013KT 12/M00 A3034 RMK A01 T01171003  RH  044%=      5-min Rain = 0
KCH1 142257Z 05011KT 12/M00 A3034 RMK A01 T01161004  RH  043%=      5-min Rain = 0
KCH1 142258Z 04007KT 12/M00 A3034 RMK A01 T01161003  RH  044%=      5-min Rain = 0
KCH1 142259Z 04008KT 12/M00 A3034 RMK A01 T01161002  RH  044%=      5-min Rain = 0
KCH1 142300Z 05013KT 12/M00 A3034 RMK A01 T01161003  RH  044%=      5-min Rain = 0
KCH1 142301Z 04010KT 12/M00 A3034 RMK A01 T01161002  RH  044%=      5-min Rain = 0
KCH1 142302Z 04010KT 12/M00 A3034 RMK A01 T01151003  RH  044%=      5-min Rain = 0
KCH1 142303Z 03009KT 12/M00 A3034 RMK A01 T01151003  RH  044%=      5-min Rain = 0
KCH1 142304Z 03008KT 12/M00 A3034 RMK A01 T01161002  RH  044%=      5-min Rain = 0
KCH1 142305Z 04008KT 12/M00 A3034 RMK A01 T01151002  RH  044%=      5-min Rain = 0
KCH1 142306Z 04009KT 12/M00 A3034 RMK A01 T01151002  RH  044%=      5-min Rain = 0
KCH1 142307Z 04007KT 12/M00 A3034 RMK A01 T01151001  RH  045%=      5-min Rain = 0
KCH1 142308Z 05007KT 11/M00 A3034 RMK A01 T01141001  RH  045%=      5-min Rain = 0
KCH1 142309Z 04008KT 11/M00 A3034 RMK A01 T01131001  RH  045%=      5-min Rain = 0
KCH1 142310Z 02006KT 11/M00 A3034 RMK A01 T01131001  RH  045%=      5-min Rain = 0
KCH1 142311Z 04005KT 11/M00 A3034 RMK A01 T01131001  RH  045%=      5-min Rain = 0
KCH1 142312Z 04006KT 11/M00 A3034 RMK A01 T01131001  RH  045%=      5-min Rain = 0
KCH1 142313Z 04006KT 11/00 A3034 RMK A01 T011300-0  RH  046%=      5-min Rain = 0
KCH1 142314Z 03007KT 11/00 A3034 RMK A01 T011200-0  RH  046%=      5-min Rain = 0
KCH1 142315Z 04008KT 11/M00 A3034 RMK A01 T01121001  RH  046%=      5-min Rain = 0
KCH1 142316Z 04010KT 11/M00 A3034 RMK A01 T01121001  RH  046%=      5-min Rain = 0
KCH1 142317Z 05009KT 11/M00 A3034 RMK A01 T01121001  RH  046%=      5-min Rain = 0
KCH1 142318Z 04007KT 11/00 A3034 RMK A01 T011200-0  RH  046%=      5-min Rain = 0
KCH1 142319Z 04006KT 11/00 A3034 RMK A01 T011100-0  RH  046%=      5-min Rain = 0
KCH1 142320Z 04007KT 11/00 A3034 RMK A01 T011000-0  RH  046%=      5-min Rain = 0
KCH1 142321Z 04007KT 11/00 A3034 RMK A01 T011000-0  RH  046%=      5-min Rain = 0
KCH1 142322Z 04006KT 11/00 A3035 RMK A01 T011000-0  RH  046%=      5-min Rain = 0
KCH1 142323Z 04006KT 11/00 A3035 RMK A01 T011000-0  RH  047%=      5-min Rain = 0
KCH1 142324Z 04006KT 11/00 A3035 RMK A01 T01090000  RH  047%=      5-min Rain = 0
KCH1 142325Z 04006KT 11/00 A3035 RMK A01 T010900-0  RH  047%=      5-min Rain = 0
KCH1 142326Z 03005KT 11/00 A3035 RMK A01 T01080000  RH  047%=      5-min Rain = 0
KCH1 142327Z 03007KT 11/00 A3035 RMK A01 T01080000  RH  047%=      5-min Rain = 0
KCH1 142328Z 03006KT 11/00 A3035 RMK A01 T010800-0  RH  047%=      5-min Rain = 0
KCH1 142329Z 03005KT 11/00 A3035 RMK A01 T01080001  RH  047%=      5-min Rain = 0
KCH1 142330Z 03005KT 11/00 A3035 RMK A01 T01070001  RH  048%=      5-min Rain = 0
KCH1 142331Z 02005KT 11/00 A3035 RMK A01 T01070001  RH  048%=      5-min Rain = 0
KCH1 142332Z 03005KT 11/00 A3035 RMK A01 T01060000  RH  048%=      5-min Rain = 0
KCH1 142333Z 03005KT 11/00 A3035 RMK A01 T01060001  RH  048%=      5-min Rain = 0
KCH1 142334Z 01008KT 11/00 A3035 RMK A01 T01050000  RH  048%=      5-min Rain = 0
KCH1 142335Z 03006KT 11/M00 A3035 RMK A01 T01051001  RH  048%=      5-min Rain = 0
KCH1 142336Z 03006KT 11/00 A3035 RMK A01 T010500-0  RH  048%=      5-min Rain = 0
KCH1 142337Z 02005KT 10/00 A3035 RMK A01 T010400-0  RH  048%=      5-min Rain = 0
KCH1 142338Z 03006KT 10/00 A3035 RMK A01 T010400-0  RH  049%=      5-min Rain = 0
KCH1 142339Z 03006KT 10/00 A3035 RMK A01 T010300-0  RH  049%=      5-min Rain = 0
KCH1 142340Z 03005KT 10/M00 A3035 RMK A01 T01031001  RH  049%=      5-min Rain = 0
KCH1 142341Z 03005KT 10/M00 A3035 RMK A01 T01021001  RH  049%=      5-min Rain = 0
KCH1 142342Z 03005KT 10/M00 A3035 RMK A01 T01021001  RH  049%=      5-min Rain = 0
KCH1 142343Z 03006KT 10/M00 A3035 RMK A01 T01011001  RH  049%=      5-min Rain = 0
KCH1 142344Z 02005KT 10/M00 A3035 RMK A01 T01011001  RH  049%=      5-min Rain = 0
KCH1 142345Z 03005KT 10/M00 A3035 RMK A01 T01011001  RH  049%=      5-min Rain = 0
KCH1 142346Z 02005KT 10/M00 A3035 RMK A01 T01001001  RH  049%=      5-min Rain = 0
KCH1 142347Z 02005KT 10/M00 A3035 RMK A01 T01001001  RH  050%=      5-min Rain = 0
KCH1 142348Z 02004KT 10/M00 A3035 RMK A01 T00991001  RH  050%=      5-min Rain = 0
KCH1 142349Z 02004KT 10/M00 A3035 RMK A01 T00981001  RH  050%=      5-min Rain = 0
KCH1 142350Z 02004KT 10/M00 A3035 RMK A01 T00981001  RH  050%=      5-min Rain = 0
KCH1 142351Z 02006KT 10/M00 A3035 RMK A01 T00971001  RH  050%=      5-min Rain = 0
KCH1 142352Z 03005KT 10/M00 A3035 RMK A01 T00971001  RH  051%=      5-min Rain = 0
KCH1 142353Z 02005KT 10/M00 A3036 RMK A01 T00961001  RH  051%=      5-min Rain = 0
KCH1 142354Z 01005KT 10/M00 A3036 RMK A01 T00961001  RH  051%=      5-min Rain = 0
KCH1 142355Z 02005KT 10/M00 A3036 RMK A01 T00951001  RH  051%=      5-min Rain = 0
KCH1 142356Z 01005KT 10/M00 A3036 RMK A01 T00951001  RH  051%=      5-min Rain = 0
KCH1 142357Z 01005KT 09/M00 A3036 RMK A01 T00941001  RH  052%=      5-min Rain = 0
KCH1 142358Z 01005KT 09/00 A3036 RMK A01 T009400-0  RH  052%=      5-min Rain = 0
KCH1 142359Z 01004KT 09/M00 A3036 RMK A01 T00931001  RH  052%=      5-min Rain = 0
KCH1 150000Z 01006KT 09/M00 A3036 RMK A01 T00931001  RH  052%=      5-min Rain = 0
KCH1 150001Z 02005KT 09/M00 A3036 RMK A01 T00931001  RH  052%=      5-min Rain = 0
KCH1 150002Z 02006KT 09/00 A3036 RMK A01 T009300-0  RH  052%=      5-min Rain = 0
KCH1 150003Z 02004KT 09/00 A3036 RMK A01 T009300-0  RH  052%=      5-min Rain = 0
KCH1 150004Z 01005KT 09/00 A3036 RMK A01 T00920000  RH  053%=      5-min Rain = 0
KCH1 150005Z 02006KT 09/00 A3036 RMK A01 T009100-0  RH  053%=      5-min Rain = 0
KCH1 150006Z 01005KT 09/00 A3036 RMK A01 T009100-0  RH  053%=      5-min Rain = 0
KCH1 150007Z 02004KT 09/00 A3036 RMK A01 T00910000  RH  053%=      5-min Rain = 0
KCH1 150008Z 02005KT 09/00 A3036 RMK A01 T00900000  RH  053%=      5-min Rain = 0
KCH1 150009Z 01005KT 09/00 A3036 RMK A01 T009000-0  RH  053%=      5-min Rain = 0
KCH1 150010Z 01005KT 09/00 A3036 RMK A01 T00890000  RH  054%=      5-min Rain = 0
KCH1 150011Z 01005KT 09/00 A3036 RMK A01 T008800-0  RH  054%=      5-min Rain = 0
KCH1 150012Z 02005KT 09/00 A3036 RMK A01 T00870000  RH  054%=      5-min Rain = 0
KCH1 150013Z 02006KT 09/00 A3036 RMK A01 T00870000  RH  054%=      5-min Rain = 0
KCH1 150014Z 02005KT 09/00 A3036 RMK A01 T00870000  RH  055%=      5-min Rain = 0
KCH1 150015Z 01005KT 09/00 A3036 RMK A01 T00870001  RH  055%=      5-min Rain = 0
KCH1 150016Z 02006KT 09/00 A3036 RMK A01 T00860000  RH  055%=      5-min Rain = 0
KCH1 150017Z 01006KT 09/00 A3036 RMK A01 T00860000  RH  055%=      5-min Rain = 0
KCH1 150018Z 01006KT 09/00 A3036 RMK A01 T00860000  RH  055%=      5-min Rain = 0
KCH1 150019Z 01006KT 09/00 A3036 RMK A01 T00850000  RH  055%=      5-min Rain = 0
KCH1 150020Z 01006KT 09/00 A3036 RMK A01 T00850000  RH  055%=      5-min Rain = 0
KCH1 150021Z 01005KT 09/00 A3037 RMK A01 T00850001  RH  055%=      5-min Rain = 0
KCH1 150022Z 01006KT 09/00 A3037 RMK A01 T00850001  RH  055%=      5-min Rain = 0
KCH1 150023Z 00005KT 09/00 A3037 RMK A01 T00850001  RH  056%=      5-min Rain = 0
KCH1 150024Z 01005KT 08/00 A3037 RMK A01 T00840000  RH  056%=      5-min Rain = 0
KCH1 150025Z 01006KT 08/00 A3037 RMK A01 T00830000  RH  056%=      5-min Rain = 0
KCH1 150026Z 01005KT 08/00 A3037 RMK A01 T00830000  RH  056%=      5-min Rain = 0
KCH1 150027Z 01005KT 08/00 A3037 RMK A01 T00820000  RH  056%=      5-min Rain = 0
KCH1 150028Z 01005KT 08/00 A3037 RMK A01 T00820000  RH  056%=      5-min Rain = 0
KCH1 150029Z 00005KT 08/00 A3037 RMK A01 T00820000  RH  057%=      5-min Rain = 0
KCH1 150030Z 01005KT 08/00 A3037 RMK A01 T00810000  RH  057%=      5-min Rain = 0
KCH1 150031Z 01005KT 08/00 A3037 RMK A01 T00810001  RH  057%=      5-min Rain = 0
KCH1 150032Z 00005KT 08/00 A3037 RMK A01 T00800000  RH  057%=      5-min Rain = 0
KCH1 150033Z 01005KT 08/00 A3037 RMK A01 T00800000  RH  057%=      5-min Rain = 0
KCH1 150034Z 00005KT 08/00 A3037 RMK A01 T00790000  RH  057%=      5-min Rain = 0
KCH1 150035Z 00005KT 08/00 A3037 RMK A01 T00790001  RH  057%=      5-min Rain = 0
KCH1 150036Z 00005KT 08/00 A3037 RMK A01 T00790000  RH  058%=      5-min Rain = 0
KCH1 150037Z 01005KT 08/00 A3037 RMK A01 T00790000  RH  058%=      5-min Rain = 0
KCH1 150038Z 00006KT 08/00 A3037 RMK A01 T00780000  RH  058%=      5-min Rain = 0
KCH1 150039Z 00006KT 08/00 A3037 RMK A01 T00780001  RH  058%=      5-min Rain = 0
KCH1 150040Z 00005KT 08/00 A3037 RMK A01 T00780000  RH  058%=      5-min Rain = 0
KCH1 150041Z 00005KT 08/00 A3037 RMK A01 T00780001  RH  058%=      5-min Rain = 0
KCH1 150042Z 00005KT 08/00 A3038 RMK A01 T00770001  RH  058%=      5-min Rain = 0
KCH1 150043Z 00005KT 08/00 A3038 RMK A01 T00760000  RH  059%=      5-min Rain = 0
KCH1 150044Z 00005KT 08/00 A3038 RMK A01 T00760001  RH  059%=      5-min Rain = 0
KCH1 150045Z 00005KT 08/00 A3038 RMK A01 T00760001  RH  059%=      5-min Rain = 0
KCH1 150046Z 00005KT 08/00 A3038 RMK A01 T00760001  RH  059%=      5-min Rain = 0
KCH1 150047Z 00005KT 08/00 A3038 RMK A01 T00750001  RH  059%=      5-min Rain = 0
KCH1 150048Z 00005KT 08/00 A3038 RMK A01 T00750000  RH  059%=      5-min Rain = 0
KCH1 150049Z 00005KT 07/00 A3038 RMK A01 T00740001  RH  059%=      5-min Rain = 0
KCH1 150050Z 00005KT 07/00 A3038 RMK A01 T00740001  RH  060%=      5-min Rain = 0
KCH1 150051Z 00005KT 07/00 A3038 RMK A01 T00740001  RH  060%=      5-min Rain = 0
KCH1 150052Z 36005KT 07/00 A3038 RMK A01 T00730001  RH  060%=      5-min Rain = 0
KCH1 150053Z 36006KT 07/00 A3038 RMK A01 T00720001  RH  060%=      5-min Rain = 0
KCH1 150054Z 36006KT 07/00 A3038 RMK A01 T00720001  RH  061%=      5-min Rain = 0
KCH1 150055Z 36005KT 07/00 A3038 RMK A01 T00720001  RH  061%=      5-min Rain = 0
KCH1 150056Z 36005KT 07/00 A3038 RMK A01 T00720001  RH  061%=      5-min Rain = 0
KCH1 150057Z 36005KT 07/00 A3038 RMK A01 T00720001  RH  061%=      5-min Rain = 0
KCH1 150058Z 36005KT 07/00 A3038 RMK A01 T00710001  RH  061%=      5-min Rain = 0
KCH1 150059Z 36006KT 07/00 A3038 RMK A01 T00710001  RH  061%=      5-min Rain = 0
KCH1 150100Z 36006KT 07/00 A3038 RMK A01 T00710001  RH  061%=      5-min Rain = 0
KCH1 150101Z 36006KT 07/00 A3038 RMK A01 T00720001  RH  061%=      5-min Rain = 0
KCH1 150102Z 36005KT 07/00 A3038 RMK A01 T00710001  RH  061%=      5-min Rain = 0
KCH1 150103Z 36005KT 07/00 A3038 RMK A01 T00710001  RH  061%=      5-min Rain = 0
KCH1 150104Z 36005KT 07/00 A3038 RMK A01 T00710001  RH  061%=      5-min Rain = 0
KCH1 150105Z 36005KT 07/00 A3038 RMK A01 T00710001  RH  061%=      5-min Rain = 0
KCH1 150106Z 36005KT 07/00 A3038 RMK A01 T00710001  RH  061%=      5-min Rain = 0
KCH1 150107Z 36005KT 07/00 A3038 RMK A01 T00700001  RH  061%=      5-min Rain = 0
KCH1 150108Z 36006KT 07/00 A3038 RMK A01 T00700001  RH  061%=      5-min Rain = 0
KCH1 150109Z 36005KT 07/00 A3038 RMK A01 T00700001  RH  061%=      5-min Rain = 0
KCH1 150110Z 36005KT 07/00 A3038 RMK A01 T00700001  RH  061%=      5-min Rain = 0
KCH1 150111Z 36005KT 07/00 A3038 RMK A01 T00700002  RH  062%=      5-min Rain = 0
KCH1 150112Z 00005KT 07/00 A3038 RMK A01 T00700001  RH  062%=      5-min Rain = 0
KCH1 150113Z 36005KT 07/00 A3038 RMK A01 T00690001  RH  062%=      5-min Rain = 0
KCH1 150114Z 36005KT 07/00 A3038 RMK A01 T00690001  RH  062%=      5-min Rain = 0
KCH1 150115Z 36006KT 07/00 A3038 RMK A01 T00690001  RH  062%=      5-min Rain = 0
KCH1 150116Z 36005KT 07/00 A3038 RMK A01 T00690002  RH  062%=      5-min Rain = 0
KCH1 150117Z 36006KT 07/00 A3038 RMK A01 T00680002  RH  063%=      5-min Rain = 0
KCH1 150118Z 36005KT 07/00 A3038 RMK A01 T00680002  RH  063%=      5-min Rain = 0
KCH1 150119Z 36006KT 07/00 A3038 RMK A01 T00670002  RH  063%=      5-min Rain = 0
KCH1 150120Z 36006KT 07/00 A3039 RMK A01 T00660001  RH  063%=      5-min Rain = 0
KCH1 150121Z 00006KT 07/00 A3039 RMK A01 T00660001  RH  063%=      5-min Rain = 0
KCH1 150122Z 36006KT 07/00 A3039 RMK A01 T00660002  RH  063%=      5-min Rain = 0
KCH1 150123Z 36006KT 07/00 A3039 RMK A01 T00660002  RH  063%=      5-min Rain = 0
KCH1 150124Z 36006KT 07/00 A3039 RMK A01 T00660001  RH  064%=      5-min Rain = 0
KCH1 150125Z 36006KT 07/00 A3039 RMK A01 T00650001  RH  064%=      5-min Rain = 0
KCH1 150126Z 36006KT 07/00 A3039 RMK A01 T00650001  RH  064%=      5-min Rain = 0
KCH1 150127Z 36006KT 06/00 A3039 RMK A01 T00640001  RH  064%=      5-min Rain = 0
KCH1 150128Z 36006KT 06/00 A3039 RMK A01 T00640001  RH  064%=      5-min Rain = 0
KCH1 150129Z 36006KT 06/00 A3039 RMK A01 T00640001  RH  064%=      5-min Rain = 0
KCH1 150130Z 36006KT 06/00 A3039 RMK A01 T00640001  RH  064%=      5-min Rain = 0
KCH1 150131Z 36006KT 06/00 A3039 RMK A01 T00630001  RH  065%=      5-min Rain = 0
KCH1 150132Z 36006KT 06/00 A3039 RMK A01 T00630001  RH  065%=      5-min Rain = 0
KCH1 150133Z 36006KT 06/00 A3039 RMK A01 T00630001  RH  065%=      5-min Rain = 0
KCH1 150134Z 00006KT 06/00 A3039 RMK A01 T00630001  RH  065%=      5-min Rain = 0
KCH1 150135Z 36006KT 06/00 A3039 RMK A01 T00630001  RH  065%=      5-min Rain = 0
KCH1 150136Z 36006KT 06/00 A3039 RMK A01 T00630001  RH  065%=      5-min Rain = 0
KCH1 150137Z 35006KT 06/00 A3039 RMK A01 T00620001  RH  065%=      5-min Rain = 0
KCH1 150138Z 35006KT 06/00 A3039 RMK A01 T00620001  RH  065%=      5-min Rain = 0
KCH1 150139Z 36006KT 06/00 A3039 RMK A01 T00620001  RH  065%=      5-min Rain = 0
KCH1 150140Z 36006KT 06/00 A3039 RMK A01 T00610001  RH  065%=      5-min Rain = 0
KCH1 150141Z 36006KT 06/00 A304 RMK A01 T00610001  RH  065%=      5-min Rain = 0
KCH1 150142Z 36006KT 06/00 A304 RMK A01 T00610001  RH  065%=      5-min Rain = 0
KCH1 150143Z 35006KT 06/00 A304 RMK A01 T00610001  RH  065%=      5-min Rain = 0
KCH1 150144Z 35006KT 06/00 A304 RMK A01 T00610001  RH  065%=      5-min Rain = 0
KCH1 150145Z 35006KT 06/00 A304 RMK A01 T00610001  RH  065%=      5-min Rain = 0
KCH1 150146Z 36006KT 06/00 A304 RMK A01 T00620001  RH  065%=      5-min Rain = 0
KCH1 150147Z 36006KT 06/00 A304 RMK A01 T00620001  RH  065%=      5-min Rain = 0
KCH1 150148Z 35006KT 06/00 A304 RMK A01 T00620001  RH  065%=      5-min Rain = 0
KCH1 150149Z 35005KT 06/00 A304 RMK A01 T00620001  RH  065%=      5-min Rain = 0
KCH1 150150Z 35005KT 06/00 A304 RMK A01 T00620000  RH  065%=      5-min Rain = 0
KCH1 150151Z 35005KT 06/00 A304 RMK A01 T00620001  RH  065%=      5-min Rain = 0
KCH1 150152Z 35006KT 06/00 A304 RMK A01 T00610000  RH  065%=      5-min Rain = 0
KCH1 150153Z 35005KT 06/00 A304 RMK A01 T00610001  RH  065%=      5-min Rain = 0
KCH1 150154Z 36006KT 06/00 A304 RMK A01 T00610000  RH  065%=      5-min Rain = 0
KCH1 150155Z 36005KT 06/00 A304 RMK A01 T00610000  RH  065%=      5-min Rain = 0
KCH1 150156Z 35005KT 06/00 A304 RMK A01 T00610000  RH  065%=      5-min Rain = 0
KCH1 150157Z 35005KT 06/00 A304 RMK A01 T00610000  RH  065%=      5-min Rain = 0
KCH1 150158Z 35005KT 06/00 A304 RMK A01 T006100-0  RH  065%=      5-min Rain = 0
KCH1 150159Z 35005KT 06/00 A304 RMK A01 T006100-0  RH  065%=      5-min Rain = 0
KCH1 150200Z 35005KT 06/00 A304 RMK A01 T006100-0  RH  065%=      5-min Rain = 0
KCH1 150201Z 35005KT 06/00 A304 RMK A01 T006100-0  RH  065%=      5-min Rain = 0
KCH1 150202Z 35005KT 06/M00 A304 RMK A01 T00611001  RH  065%=      5-min Rain = 0
KCH1 150203Z 35005KT 06/00 A304 RMK A01 T006100-0  RH  065%=      5-min Rain = 0
KCH1 150204Z 35005KT 06/M00 A304 RMK A01 T00611001  RH  065%=      5-min Rain = 0
KCH1 150205Z 35005KT 06/00 A304 RMK A01 T006000-0  RH  065%=      5-min Rain = 0
KCH1 150206Z 35005KT 06/00 A304 RMK A01 T006100-0  RH  065%=      5-min Rain = 0
KCH1 150207Z 35005KT 06/M00 A304 RMK A01 T00611001  RH  065%=      5-min Rain = 0
KCH1 150208Z 35005KT 06/00 A304 RMK A01 T006000-0  RH  065%=      5-min Rain = 0
KCH1 150209Z 35006KT 06/00 A304 RMK A01 T006100-0  RH  065%=      5-min Rain = 0
KCH1 150210Z 34006KT 06/00 A3041 RMK A01 T006100-0  RH  065%=      5-min Rain = 0
KCH1 150211Z 34006KT 06/00 A3041 RMK A01 T00610000  RH  065%=      5-min Rain = 0
KCH1 150212Z 34006KT 06/00 A3041 RMK A01 T00610000  RH  065%=      5-min Rain = 0
KCH1 150213Z 34005KT 06/00 A3041 RMK A01 T006000-0  RH  065%=      5-min Rain = 0
KCH1 150214Z 34005KT 06/00 A3041 RMK A01 T006000-0  RH  065%=      5-min Rain = 0
KCH1 150215Z 34005KT 06/00 A3041 RMK A01 T006000-0  RH  065%=      5-min Rain = 0
KCH1 150216Z 34005KT 06/00 A3041 RMK A01 T006000-0  RH  065%=      5-min Rain = 0
KCH1 150217Z 35005KT 06/00 A3041 RMK A01 T006000-0  RH  065%=      5-min Rain = 0
KCH1 150218Z 35005KT 06/00 A3041 RMK A01 T006000-0  RH  065%=      5-min Rain = 0
KCH1 150219Z 35005KT 06/M00 A3041 RMK A01 T00601001  RH  065%=      5-min Rain = 0
KCH1 150220Z 34005KT 06/M00 A3041 RMK A01 T00601001  RH  065%=      5-min Rain = 0
KCH1 150221Z 34005KT 06/M00 A3041 RMK A01 T00601001  RH  065%=      5-min Rain = 0
KCH1 150222Z 35005KT 06/00 A3041 RMK A01 T006000-0  RH  065%=      5-min Rain = 0
KCH1 150223Z 34005KT 06/00 A3041 RMK A01 T006000-0  RH  065%=      5-min Rain = 0
KCH1 150224Z 34005KT 06/M00 A3041 RMK A01 T00591001  RH  065%=      5-min Rain = 0
KCH1 150225Z 34004KT 06/M00 A3041 RMK A01 T00591001  RH  065%=      5-min Rain = 0
KCH1 150226Z 34004KT 06/M00 A3041 RMK A01 T00591001  RH  065%=      5-min Rain = 0
KCH1 150227Z 34004KT 06/M00 A3041 RMK A01 T00591001  RH  066%=      5-min Rain = 0
KCH1 150228Z 33004KT 06/M00 A3041 RMK A01 T00581001  RH  066%=      5-min Rain = 0
KCH1 150229Z 32004KT 06/M00 A3041 RMK A01 T00581001  RH  066%=      5-min Rain = 0
KCH1 150230Z 32004KT 06/M00 A3041 RMK A01 T00571002  RH  066%=      5-min Rain = 0
KCH1 150231Z 32004KT 06/M00 A3041 RMK A01 T00561002  RH  066%=      5-min Rain = 0
KCH1 150232Z 31003KT 06/M00 A3042 RMK A01 T00561002  RH  066%=      5-min Rain = 0
KCH1 150233Z 31003KT 06/M00 A3042 RMK A01 T00561001  RH  067%=      5-min Rain = 0
KCH1 150234Z 30003KT 06/M00 A3042 RMK A01 T00551001  RH  067%=      5-min Rain = 0
KCH1 150235Z 30004KT 05/M00 A3042 RMK A01 T00541001  RH  068%=      5-min Rain = 0
KCH1 150236Z 31004KT 05/M00 A3042 RMK A01 T00531001  RH  068%=      5-min Rain = 0
KCH1 150237Z 31004KT 05/M00 A3042 RMK A01 T00531001  RH  068%=      5-min Rain = 0
KCH1 150238Z 30004KT 05/00 A3042 RMK A01 T005200-0  RH  069%=      5-min Rain = 0
KCH1 150239Z 30005KT 05/00 A3042 RMK A01 T00520000  RH  069%=      5-min Rain = 0
KCH1 150240Z 31005KT 05/00 A3042 RMK A01 T00510001  RH  070%=      5-min Rain = 0
KCH1 150241Z 31005KT 05/00 A3042 RMK A01 T00510001  RH  070%=      5-min Rain = 0
KCH1 150242Z 31005KT 05/00 A3042 RMK A01 T00510001  RH  070%=      5-min Rain = 0
KCH1 150243Z 31005KT 05/00 A3042 RMK A01 T00520001  RH  070%=      5-min Rain = 0
KCH1 150244Z 31005KT 05/00 A3042 RMK A01 T00510001  RH  070%=      5-min Rain = 0
KCH1 150245Z 31005KT 05/00 A3042 RMK A01 T00510001  RH  070%=      5-min Rain = 0
KCH1 150246Z 31005KT 05/00 A3042 RMK A01 T00510001  RH  070%=      5-min Rain = 0
KCH1 150247Z 32006KT 05/00 A3042 RMK A01 T00510000  RH  070%=      5-min Rain = 0
KCH1 150248Z 32005KT 05/00 A3042 RMK A01 T00510000  RH  070%=      5-min Rain = 0
KCH1 150249Z 32005KT 05/00 A3042 RMK A01 T00500000  RH  070%=      5-min Rain = 0
KCH1 150250Z 32005KT 05/00 A3042 RMK A01 T005000-0  RH  070%=      5-min Rain = 0
KCH1 150251Z 33005KT 05/00 A3042 RMK A01 T005000-0  RH  070%=      5-min Rain = 0
KCH1 150252Z 33005KT 05/M00 A3042 RMK A01 T00491001  RH  070%=      5-min Rain = 0
KCH1 150253Z 33005KT 05/M00 A3042 RMK A01 T00491001  RH  070%=      5-min Rain = 0
KCH1 150254Z 33004KT 05/M00 A3042 RMK A01 T00481001  RH  070%=      5-min Rain = 0
KCH1 150255Z 34004KT 05/M00 A3042 RMK A01 T00481001  RH  071%=      5-min Rain = 0
KCH1 150256Z 34004KT 05/M00 A3042 RMK A01 T00471002  RH  071%=      5-min Rain = 0
KCH1 150257Z 34004KT 05/M00 A3042 RMK A01 T00451002  RH  071%=      5-min Rain = 0
KCH1 150258Z 34004KT 04/M00 A3042 RMK A01 T00441002  RH  072%=      5-min Rain = 0
KCH1 150259Z 34004KT 04/M00 A3042 RMK A01 T00431003  RH  072%=      5-min Rain = 0
KCH1 150300Z 34004KT 04/M00 A3042 RMK A01 T00431003  RH  072%=      5-min Rain = 0
KCH1 150301Z 34004KT 04/M00 A3042 RMK A01 T00431002  RH  072%=      5-min Rain = 0
KCH1 150302Z 34004KT 04/M00 A3042 RMK A01 T00431002  RH  073%=      5-min Rain = 0
KCH1 150303Z 34004KT 04/M00 A3042 RMK A01 T00421003  RH  073%=      5-min Rain = 0
KCH1 150304Z 34003KT 04/M00 A3042 RMK A01 T00421002  RH  073%=      5-min Rain = 0
KCH1 150305Z 34003KT 04/M00 A3042 RMK A01 T00421002  RH  073%=      5-min Rain = 0
KCH1 150306Z 34002KT 04/M00 A3042 RMK A01 T00421002  RH  073%=      5-min Rain = 0
KCH1 150307Z 34002KT 04/M00 A3042 RMK A01 T00421002  RH  073%=      5-min Rain = 0
KCH1 150308Z 33002KT 04/M00 A3043 RMK A01 T00421002  RH  073%=      5-min Rain = 0
KCH1 150309Z 32002KT 04/M00 A3043 RMK A01 T00421002  RH  073%=      5-min Rain = 0
KCH1 150310Z 32002KT 04/M00 A3043 RMK A01 T00421002  RH  073%=      5-min Rain = 0
KCH1 150311Z 32001KT 04/M00 A3043 RMK A01 T00421002  RH  073%=      5-min Rain = 0
KCH1 150312Z 32001KT 04/M00 A3043 RMK A01 T00421002  RH  073%=      5-min Rain = 0
KCH1 150313Z 31001KT 04/M00 A3043 RMK A01 T00421002  RH  073%=      5-min Rain = 0
KCH1 150314Z 30001KT 04/M00 A3043 RMK A01 T00411002  RH  074%=      5-min Rain = 0
KCH1 150315Z 30001KT 04/M00 A3043 RMK A01 T00411002  RH  074%=      5-min Rain = 0
KCH1 150316Z 29002KT 04/M00 A3043 RMK A01 T00411001  RH  074%=      5-min Rain = 0
KCH1 150317Z 29002KT 04/M00 A3043 RMK A01 T00401002  RH  074%=      5-min Rain = 0
KCH1 150318Z 30003KT 04/M00 A3043 RMK A01 T00411001  RH  074%=      5-min Rain = 0
KCH1 150319Z 30003KT 04/M00 A3043 RMK A01 T00411002  RH  074%=      5-min Rain = 0
KCH1 150320Z 30003KT 04/M00 A3043 RMK A01 T00411002  RH  074%=      5-min Rain = 0
KCH1 150321Z 29002KT 04/M00 A3043 RMK A01 T00411002  RH  073%=      5-min Rain = 0
KCH1 150322Z 29002KT 04/M00 A3043 RMK A01 T00411002  RH  073%=      5-min Rain = 0
KCH1 150323Z 29003KT 04/M00 A3043 RMK A01 T00411002  RH  074%=      5-min Rain = 0
KCH1 150324Z 29003KT 04/M00 A3043 RMK A01 T00411002  RH  074%=      5-min Rain = 0
KCH1 150325Z 29003KT 04/M00 A3043 RMK A01 T00411001  RH  074%=      5-min Rain = 0
KCH1 150326Z 29003KT 04/M00 A3043 RMK A01 T00411001  RH  074%=      5-min Rain = 0
KCH1 150327Z 29003KT 04/00 A3043 RMK A01 T00410000  RH  075%=      5-min Rain = 0
KCH1 150328Z 29003KT 04/00 A3043 RMK A01 T00400001  RH  076%=      5-min Rain = 0
KCH1 150329Z 29004KT 04/00 A3043 RMK A01 T00400003  RH  077%=      5-min Rain = 0
KCH1 150330Z 29003KT 04/00 A3043 RMK A01 T00400004  RH  077%=      5-min Rain = 0
KCH1 150331Z 30003KT 04/01 A3043 RMK A01 T00410005  RH  077%=      5-min Rain = 0
KCH1 150332Z 30003KT 04/01 A3043 RMK A01 T00410005  RH  077%=      5-min Rain = 0
KCH1 150333Z 30003KT 04/01 A3043 RMK A01 T00410005  RH  077%=      5-min Rain = 0
KCH1 150334Z 30003KT 04/01 A3043 RMK A01 T00410005  RH  077%=      5-min Rain = 0
KCH1 150335Z 30002KT 04/01 A3043 RMK A01 T00410005  RH  077%=      5-min Rain = 0
KCH1 150336Z 30002KT 04/01 A3043 RMK A01 T00410005  RH  077%=      5-min Rain = 0
KCH1 150337Z 30003KT 04/00 A3043 RMK A01 T00400004  RH  077%=      5-min Rain = 0
KCH1 150338Z 30003KT 04/00 A3043 RMK A01 T00400004  RH  077%=      5-min Rain = 0
KCH1 150339Z 31003KT 04/00 A3043 RMK A01 T00400004  RH  078%=      5-min Rain = 0
KCH1 150340Z 30003KT 04/01 A3043 RMK A01 T00390005  RH  078%=      5-min Rain = 0
KCH1 150341Z 30003KT 04/01 A3043 RMK A01 T00390005  RH  078%=      5-min Rain = 0
KCH1 150342Z 29003KT 04/01 A3043 RMK A01 T00390005  RH  079%=      5-min Rain = 0
KCH1 150343Z 30003KT 04/01 A3043 RMK A01 T00380005  RH  079%=      5-min Rain = 0
KCH1 150344Z 29003KT 04/00 A3043 RMK A01 T00380004  RH  079%=      5-min Rain = 0
KCH1 150345Z 29003KT 04/01 A3043 RMK A01 T00380005  RH  079%=      5-min Rain = 0
KCH1 150346Z 29003KT 04/01 A3043 RMK A01 T00380006  RH  080%=      5-min Rain = 0
KCH1 150347Z 29004KT 04/01 A3043 RMK A01 T00380006  RH  080%=      5-min Rain = 0
KCH1 150348Z 29004KT 04/01 A3043 RMK A01 T00380007  RH  080%=      5-min Rain = 0
KCH1 150349Z 29004KT 04/01 A3043 RMK A01 T00370007  RH  081%=      5-min Rain = 0
KCH1 150350Z 29004KT 04/01 A3043 RMK A01 T00370008  RH  081%=      5-min Rain = 0
KCH1 150351Z 29005KT 04/01 A3043 RMK A01 T00370008  RH  082%=      5-min Rain = 0
KCH1 150352Z 30005KT 04/01 A3043 RMK A01 T00360008  RH  082%=      5-min Rain = 0
KCH1 150353Z 30005KT 04/01 A3043 RMK A01 T00350007  RH  082%=      5-min Rain = 0
KCH1 150354Z 30006KT 04/01 A3043 RMK A01 T00350008  RH  083%=      5-min Rain = 0
KCH1 150355Z 31006KT 04/01 A3043 RMK A01 T00350009  RH  083%=      5-min Rain = 0
KCH1 150356Z 31006KT 04/01 A3043 RMK A01 T00360011  RH  083%=      5-min Rain = 0
KCH1 150357Z 31006KT 04/01 A3043 RMK A01 T00380012  RH  083%=      5-min Rain = 0
KCH1 150358Z 32006KT 04/01 A3043 RMK A01 T00390012  RH  083%=      5-min Rain = 0
KCH1 150359Z 32006KT 04/01 A3043 RMK A01 T00390012  RH  083%=      5-min Rain = 0
KCH1 150400Z 32006KT 04/01 A3043 RMK A01 T00380012  RH  083%=      5-min Rain = 0
KCH1 150401Z 32006KT 04/01 A3043 RMK A01 T00380013  RH  083%=      5-min Rain = 0
KCH1 150402Z 32007KT 04/01 A3043 RMK A01 T00380012  RH  083%=      5-min Rain = 0
KCH1 150403Z 32007KT 04/01 A3043 RMK A01 T00380012  RH  083%=      5-min Rain = 0
KCH1 150404Z 32007KT 04/01 A3043 RMK A01 T00380013  RH  084%=      5-min Rain = 0
KCH1 150405Z 32007KT 04/01 A3043 RMK A01 T00380013  RH  084%=      5-min Rain = 0
KCH1 150406Z 32007KT 04/01 A3043 RMK A01 T00380013  RH  084%=      5-min Rain = 0
KCH1 150407Z 32007KT 04/01 A3043 RMK A01 T00380013  RH  084%=      5-min Rain = 0
KCH1 150408Z 32007KT 04/01 A3043 RMK A01 T00380013  RH  083%=      5-min Rain = 0
KCH1 150409Z 32006KT 04/01 A3043 RMK A01 T00380012  RH  084%=      5-min Rain = 0
KCH1 150410Z 32006KT 04/01 A3043 RMK A01 T00380013  RH  084%=      5-min Rain = 0
KCH1 150411Z 32006KT 04/01 A3043 RMK A01 T00380013  RH  084%=      5-min Rain = 0
KCH1 150412Z 31006KT 04/01 A3043 RMK A01 T00380013  RH  084%=      5-min Rain = 0
KCH1 150413Z 31006KT 04/01 A3043 RMK A01 T00380013  RH  084%=      5-min Rain = 0
KCH1 150414Z 31006KT 04/01 A3043 RMK A01 T00380013  RH  084%=      5-min Rain = 0
KCH1 150415Z 31005KT 04/01 A3043 RMK A01 T00380014  RH  084%=      5-min Rain = 0
KCH1 150416Z 31005KT 04/01 A3043 RMK A01 T00390014  RH  084%=      5-min Rain = 0
KCH1 150417Z 31005KT 04/01 A3043 RMK A01 T00390013  RH  084%=      5-min Rain = 0
KCH1 150418Z 31005KT 04/01 A3043 RMK A01 T00390013  RH  084%=      5-min Rain = 0
KCH1 150419Z 30004KT 04/01 A3043 RMK A01 T00380013  RH  084%=      5-min Rain = 0
KCH1 150420Z 31005KT 04/01 A3043 RMK A01 T00380013  RH  084%=      5-min Rain = 0
KCH1 150421Z 30005KT 04/01 A3043 RMK A01 T00380013  RH  084%=      5-min Rain = 0
KCH1 150422Z 30004KT 04/01 A3043 RMK A01 T00370013  RH  084%=      5-min Rain = 0
KCH1 150423Z 29003KT 04/01 A3043 RMK A01 T00360012  RH  084%=      5-min Rain = 0
KCH1 150424Z 29003KT 04/01 A3043 RMK A01 T00360012  RH  084%=      5-min Rain = 0
KCH1 150425Z 28002KT 04/01 A3043 RMK A01 T00360012  RH  085%=      5-min Rain = 0
KCH1 150426Z 28002KT 04/01 A3043 RMK A01 T00350011  RH  085%=      5-min Rain = 0
KCH1 150427Z 29001KT 03/01 A3043 RMK A01 T00340010  RH  085%=      5-min Rain = 0
KCH1 150428Z 30002KT 03/01 A3043 RMK A01 T00330009  RH  085%=      5-min Rain = 0
KCH1 150429Z 30002KT 03/01 A3043 RMK A01 T00320009  RH  085%=      5-min Rain = 0
KCH1 150430Z 31002KT 03/01 A3043 RMK A01 T00310009  RH  085%=      5-min Rain = 0
KCH1 150431Z 32002KT 03/01 A3043 RMK A01 T00310009  RH  085%=      5-min Rain = 0
KCH1 150432Z 31002KT 03/01 A3043 RMK A01 T00300009  RH  086%=      5-min Rain = 0
KCH1 150433Z 31003KT 03/01 A3043 RMK A01 T00310010  RH  086%=      5-min Rain = 0
KCH1 150434Z 31003KT 03/01 A3043 RMK A01 T00300010  RH  086%=      5-min Rain = 0
KCH1 150435Z 31003KT 03/01 A3043 RMK A01 T00300010  RH  087%=      5-min Rain = 0
KCH1 150436Z 31004KT 03/01 A3043 RMK A01 T00300011  RH  087%=      5-min Rain = 0
KCH1 150437Z 30004KT 03/01 A3043 RMK A01 T00300011  RH  087%=      5-min Rain = 0
KCH1 150438Z 29004KT 03/01 A3043 RMK A01 T00300011  RH  087%=      5-min Rain = 0
KCH1 150439Z 29004KT 03/01 A3043 RMK A01 T00300011  RH  087%=      5-min Rain = 0
KCH1 150440Z 29004KT 03/01 A3043 RMK A01 T00300011  RH  087%=      5-min Rain = 0
KCH1 150441Z 29004KT 03/01 A3043 RMK A01 T00290011  RH  088%=      5-min Rain = 0
KCH1 150442Z 28004KT 03/01 A3044 RMK A01 T00300012  RH  088%=      5-min Rain = 0
KCH1 150443Z 28004KT 03/01 A3044 RMK A01 T00300012  RH  088%=      5-min Rain = 0
KCH1 150444Z 28005KT 03/01 A3044 RMK A01 T00300012  RH  088%=      5-min Rain = 0
KCH1 150445Z 28005KT 03/01 A3044 RMK A01 T00300012  RH  088%=      5-min Rain = 0
KCH1 150446Z 28006KT 03/01 A3044 RMK A01 T00290010  RH  087%=      5-min Rain = 0
KCH1 150447Z 29006KT 03/01 A3044 RMK A01 T00300010  RH  087%=      5-min Rain = 0
KCH1 150448Z 29006KT 03/01 A3044 RMK A01 T00290010  RH  087%=      5-min Rain = 0
KCH1 150449Z 29006KT 03/01 A3044 RMK A01 T00290009  RH  087%=      5-min Rain = 0
KCH1 150450Z 29006KT 03/01 A3044 RMK A01 T00290009  RH  087%=      5-min Rain = 0
KCH1 150451Z 29006KT 03/01 A3044 RMK A01 T00300009  RH  086%=      5-min Rain = 0
KCH1 150452Z 29006KT 03/01 A3044 RMK A01 T00300008  RH  086%=      5-min Rain = 0
KCH1 150453Z 29006KT 03/01 A3044 RMK A01 T00300007  RH  085%=      5-min Rain = 0
KCH1 150454Z 29006KT 03/01 A3044 RMK A01 T00300007  RH  085%=      5-min Rain = 0
KCH1 150455Z 29007KT 03/01 A3044 RMK A01 T00300006  RH  084%=      5-min Rain = 0
KCH1 150456Z 29007KT 03/01 A3044 RMK A01 T00300006  RH  084%=      5-min Rain = 0
KCH1 150457Z 29007KT 03/01 A3044 RMK A01 T00300005  RH  084%=      5-min Rain = 0
KCH1 150458Z 29007KT 03/01 A3044 RMK A01 T00300005  RH  084%=      5-min Rain = 0
KCH1 150459Z 29007KT 03/01 A3044 RMK A01 T00300005  RH  083%=      5-min Rain = 0
KCH1 150500Z 29007KT 03/00 A3044 RMK A01 T00300004  RH  083%=      5-min Rain = 0
KCH1 150501Z 29007KT 03/00 A3044 RMK A01 T00300004  RH  083%=      5-min Rain = 0
KCH1 150502Z 29007KT 03/00 A3044 RMK A01 T00310004  RH  083%=      5-min Rain = 0
KCH1 150503Z 29007KT 03/01 A3044 RMK A01 T00310005  RH  083%=      5-min Rain = 0
KCH1 150504Z 29007KT 03/00 A3044 RMK A01 T00310004  RH  082%=      5-min Rain = 0
KCH1 150505Z 30007KT 03/00 A3044 RMK A01 T00310004  RH  082%=      5-min Rain = 0
KCH1 150506Z 29006KT 03/00 A3044 RMK A01 T00310004  RH  083%=      5-min Rain = 0
KCH1 150507Z 30006KT 03/00 A3044 RMK A01 T00300004  RH  083%=      5-min Rain = 0
KCH1 150508Z 30006KT 03/00 A3044 RMK A01 T00290004  RH  083%=      5-min Rain = 0
KCH1 150509Z 30006KT 03/00 A3044 RMK A01 T00290004  RH  084%=      5-min Rain = 0
KCH1 150510Z 30006KT 03/01 A3044 RMK A01 T00290005  RH  084%=      5-min Rain = 0
KCH1 150511Z 29006KT 03/01 A3044 RMK A01 T00290005  RH  084%=      5-min Rain = 0
KCH1 150512Z 30005KT 03/01 A3044 RMK A01 T00290005  RH  084%=      5-min Rain = 0
KCH1 150513Z 30005KT 03/01 A3044 RMK A01 T00290005  RH  085%=      5-min Rain = 0
KCH1 150514Z 30005KT 03/01 A3044 RMK A01 T00280005  RH  085%=      5-min Rain = 0
KCH1 150515Z 30005KT 03/01 A3044 RMK A01 T00290006  RH  085%=      5-min Rain = 0
KCH1 150516Z 30006KT 03/01 A3044 RMK A01 T00280006  RH  085%=      5-min Rain = 0
KCH1 150517Z 30005KT 03/01 A3044 RMK A01 T00280006  RH  085%=      5-min Rain = 0
KCH1 150518Z 30006KT 03/01 A3044 RMK A01 T00280006  RH  086%=      5-min Rain = 0
KCH1 150519Z 31005KT 03/01 A3044 RMK A01 T00280007  RH  086%=      5-min Rain = 0
KCH1 150520Z 31005KT 03/01 A3044 RMK A01 T00280007  RH  086%=      5-min Rain = 0
KCH1 150521Z 31006KT 03/01 A3044 RMK A01 T00280007  RH  086%=      5-min Rain = 0
KCH1 150522Z 31006KT 03/01 A3044 RMK A01 T00280007  RH  086%=      5-min Rain = 0
KCH1 150523Z 31005KT 03/01 A3044 RMK A01 T00280007  RH  086%=      5-min Rain = 0
KCH1 150524Z 30006KT 03/01 A3044 RMK A01 T00280007  RH  086%=      5-min Rain = 0
KCH1 150525Z 30005KT 03/01 A3044 RMK A01 T00280007  RH  086%=      5-min Rain = 0
KCH1 150526Z 31005KT 03/01 A3044 RMK A01 T00270007  RH  086%=      5-min Rain = 0
KCH1 150527Z 31005KT 03/01 A3044 RMK A01 T00270007  RH  086%=      5-min Rain = 0
KCH1 150528Z 31005KT 03/01 A3044 RMK A01 T00270007  RH  087%=      5-min Rain = 0
KCH1 150529Z 31005KT 03/01 A3044 RMK A01 T00270007  RH  087%=      5-min Rain = 0
KCH1 150530Z 31005KT 03/01 A3044 RMK A01 T00270007  RH  087%=      5-min Rain = 0
KCH1 150531Z 31004KT 03/01 A3044 RMK A01 T00270007  RH  087%=      5-min Rain = 0
KCH1 150532Z 32004KT 03/01 A3044 RMK A01 T00270007  RH  087%=      5-min Rain = 0
KCH1 150533Z 32004KT 03/01 A3044 RMK A01 T00260006  RH  087%=      5-min Rain = 0
KCH1 150534Z 32004KT 03/01 A3044 RMK A01 T00260006  RH  087%=      5-min Rain = 0
KCH1 150535Z 32004KT 03/01 A3044 RMK A01 T00260006  RH  087%=      5-min Rain = 0
KCH1 150536Z 33004KT 03/01 A3044 RMK A01 T00260005  RH  086%=      5-min Rain = 0
KCH1 150537Z 33003KT 03/01 A3044 RMK A01 T00260006  RH  087%=      5-min Rain = 0
KCH1 150538Z 33002KT 03/01 A3044 RMK A01 T00250005  RH  087%=      5-min Rain = 0
KCH1 150539Z 34002KT 02/00 A3044 RMK A01 T00240003  RH  086%=      5-min Rain = 0
KCH1 150540Z 34002KT 02/00 A3044 RMK A01 T00230002  RH  086%=      5-min Rain = 0
KCH1 150541Z 34001KT 02/00 A3044 RMK A01 T00210001  RH  086%=      5-min Rain = 0
KCH1 150542Z 33001KT 02/00 A3044 RMK A01 T00200000  RH  087%=      5-min Rain = 0
KCH1 150543Z 33001KT 02/00 A3044 RMK A01 T001900-0  RH  087%=      5-min Rain = 0
KCH1 150544Z 33001KT 02/00 A3044 RMK A01 T00180000  RH  088%=      5-min Rain = 0
KCH1 150545Z 32002KT 02/00 A3044 RMK A01 T00170001  RH  089%=      5-min Rain = 0
KCH1 150546Z 32001KT 02/00 A3044 RMK A01 T00170001  RH  089%=      5-min Rain = 0
KCH1 150547Z 31001KT 02/00 A3044 RMK A01 T00160001  RH  089%=      5-min Rain = 0
KCH1 150548Z 32002KT 02/00 A3044 RMK A01 T00160001  RH  090%=      5-min Rain = 0
KCH1 150549Z 31002KT 02/00 A3044 RMK A01 T00160001  RH  090%=      5-min Rain = 0
KCH1 150550Z 31002KT 02/00 A3044 RMK A01 T00160002  RH  090%=      5-min Rain = 0
KCH1 150551Z 31003KT 02/00 A3044 RMK A01 T00160001  RH  090%=      5-min Rain = 0
KCH1 150552Z 31003KT 02/00 A3044 RMK A01 T00160002  RH  090%=      5-min Rain = 0
KCH1 150553Z 31002KT 02/00 A3044 RMK A01 T00160001  RH  090%=      5-min Rain = 0
KCH1 150554Z 30002KT 02/00 A3044 RMK A01 T00160001  RH  090%=      5-min Rain = 0
KCH1 150555Z 29002KT 02/00 A3044 RMK A01 T00160001  RH  090%=      5-min Rain = 0
KCH1 150556Z 29002KT 02/00 A3044 RMK A01 T00160001  RH  090%=      5-min Rain = 0
KCH1 150557Z 30002KT 02/00 A3044 RMK A01 T00170001  RH  089%=      5-min Rain = 0
KCH1 150558Z 30002KT 02/00 A3044 RMK A01 T00170001  RH  089%=      5-min Rain = 0
KCH1 150559Z 31002KT 02/00 A3044 RMK A01 T00170001  RH  089%=      5-min Rain = 0

Page generated in 0.1324 seconds.